<?xml version="1.0" encoding="UTF-8" standalone="no" ?>
<gpx xmlns="http://www.topografix.com/GPX/1/1" xmlns:xsi="http://www.w3.org/2001/XMLSchema-instance" xsi:schemaLocation="http://www.topografix.com/GPX/1/1 http://www.topografix.com/GPX/1/1/gpx.xsd" version="1.1" creator="VisuGPX - https://www.visugpx.com">
  <metadata>
    <name>Combe du Giclas</name>
    <desc><![CDATA[Pravouta-combe du Giclas]]></desc>
  </metadata>
  <trk>
    <name><![CDATA[2012-02-14GICLAS]]></name>
    <trkseg>
      <trkpt lat="45.33142" lon="5.84545">
        <ele>988.6</ele>
        <time>2012-02-14T09:47:24Z</time>
      </trkpt>
      <trkpt lat="45.3314" lon="5.84569">
        <ele>988.3</ele>
        <time>2012-02-14T09:47:51Z</time>
      </trkpt>
      <trkpt lat="45.33144" lon="5.84579">
        <ele>988.3</ele>
        <time>2012-02-14T09:48:52Z</time>
      </trkpt>
      <trkpt lat="45.33145" lon="5.8458">
        <ele>988.4</ele>
        <time>2012-02-14T09:48:53Z</time>
      </trkpt>
      <trkpt lat="45.3314" lon="5.84602">
        <ele>989.7</ele>
        <time>2012-02-14T09:49:14Z</time>
      </trkpt>
      <trkpt lat="45.3314" lon="5.84614">
        <ele>989.9</ele>
        <time>2012-02-14T09:49:22Z</time>
      </trkpt>
      <trkpt lat="45.33137" lon="5.84626">
        <ele>990.9</ele>
        <time>2012-02-14T09:49:32Z</time>
      </trkpt>
      <trkpt lat="45.33131" lon="5.84635">
        <ele>991.1</ele>
        <time>2012-02-14T09:49:48Z</time>
      </trkpt>
      <trkpt lat="45.33126" lon="5.84644">
        <ele>992.9</ele>
        <time>2012-02-14T09:50:13Z</time>
      </trkpt>
      <trkpt lat="45.33125" lon="5.84645">
        <ele>993.3</ele>
        <time>2012-02-14T09:50:14Z</time>
      </trkpt>
      <trkpt lat="45.33114" lon="5.84649">
        <ele>998.2</ele>
        <time>2012-02-14T09:50:39Z</time>
      </trkpt>
      <trkpt lat="45.33113" lon="5.84637">
        <ele>997.6</ele>
        <time>2012-02-14T09:50:46Z</time>
      </trkpt>
      <trkpt lat="45.33111" lon="5.84625">
        <ele>997.9</ele>
        <time>2012-02-14T09:50:53Z</time>
      </trkpt>
      <trkpt lat="45.33109" lon="5.84614">
        <ele>998.8</ele>
        <time>2012-02-14T09:51:02Z</time>
      </trkpt>
      <trkpt lat="45.33108" lon="5.84601">
        <ele>999.4</ele>
        <time>2012-02-14T09:51:13Z</time>
      </trkpt>
      <trkpt lat="45.33105" lon="5.84589">
        <ele>1002.4</ele>
        <time>2012-02-14T09:51:27Z</time>
      </trkpt>
      <trkpt lat="45.33104" lon="5.84589">
        <ele>1003.1</ele>
        <time>2012-02-14T09:51:28Z</time>
      </trkpt>
      <trkpt lat="45.33095" lon="5.8457">
        <ele>1006.1</ele>
        <time>2012-02-14T09:51:50Z</time>
      </trkpt>
      <trkpt lat="45.33094" lon="5.84558">
        <ele>1007.3</ele>
        <time>2012-02-14T09:52:00Z</time>
      </trkpt>
      <trkpt lat="45.33095" lon="5.84546">
        <ele>1009.6</ele>
        <time>2012-02-14T09:52:11Z</time>
      </trkpt>
      <trkpt lat="45.33094" lon="5.84534">
        <ele>1010.8</ele>
        <time>2012-02-14T09:52:22Z</time>
      </trkpt>
      <trkpt lat="45.33096" lon="5.84522">
        <ele>1011.8</ele>
        <time>2012-02-14T09:52:30Z</time>
      </trkpt>
      <trkpt lat="45.33096" lon="5.84521">
        <ele>1012</ele>
        <time>2012-02-14T09:52:31Z</time>
      </trkpt>
      <trkpt lat="45.33088" lon="5.84502">
        <ele>1012.9</ele>
        <time>2012-02-14T09:52:43Z</time>
      </trkpt>
      <trkpt lat="45.33081" lon="5.84493">
        <ele>1014.5</ele>
        <time>2012-02-14T09:52:52Z</time>
      </trkpt>
      <trkpt lat="45.3308" lon="5.84481">
        <ele>1016.6</ele>
        <time>2012-02-14T09:53:04Z</time>
      </trkpt>
      <trkpt lat="45.33081" lon="5.8447">
        <ele>1017</ele>
        <time>2012-02-14T09:53:14Z</time>
      </trkpt>
      <trkpt lat="45.33082" lon="5.84458">
        <ele>1018.6</ele>
        <time>2012-02-14T09:53:25Z</time>
      </trkpt>
      <trkpt lat="45.33083" lon="5.84446">
        <ele>1019.7</ele>
        <time>2012-02-14T09:53:35Z</time>
      </trkpt>
      <trkpt lat="45.33082" lon="5.84445">
        <ele>1019.8</ele>
        <time>2012-02-14T09:53:36Z</time>
      </trkpt>
      <trkpt lat="45.33075" lon="5.84425">
        <ele>1021.8</ele>
        <time>2012-02-14T09:53:52Z</time>
      </trkpt>
      <trkpt lat="45.33075" lon="5.84425">
        <ele>1021.8</ele>
        <time>2012-02-14T09:53:52Z</time>
      </trkpt>
      <trkpt lat="45.33066" lon="5.84427">
        <ele>1024.1</ele>
        <time>2012-02-14T09:54:01Z</time>
      </trkpt>
      <trkpt lat="45.33058" lon="5.84431">
        <ele>1026.7</ele>
        <time>2012-02-14T09:54:13Z</time>
      </trkpt>
      <trkpt lat="45.33051" lon="5.84423">
        <ele>1028.3</ele>
        <time>2012-02-14T09:54:32Z</time>
      </trkpt>
      <trkpt lat="45.33043" lon="5.84428">
        <ele>1030.4</ele>
        <time>2012-02-14T09:54:48Z</time>
      </trkpt>
      <trkpt lat="45.33042" lon="5.84428">
        <ele>1030.6</ele>
        <time>2012-02-14T09:54:49Z</time>
      </trkpt>
      <trkpt lat="45.33029" lon="5.8444">
        <ele>1032</ele>
        <time>2012-02-14T09:55:05Z</time>
      </trkpt>
      <trkpt lat="45.33021" lon="5.84446">
        <ele>1033.2</ele>
        <time>2012-02-14T09:55:12Z</time>
      </trkpt>
      <trkpt lat="45.33015" lon="5.84454">
        <ele>1034.8</ele>
        <time>2012-02-14T09:55:21Z</time>
      </trkpt>
      <trkpt lat="45.33015" lon="5.84454">
        <ele>1034.8</ele>
        <time>2012-02-14T09:55:21Z</time>
      </trkpt>
      <trkpt lat="45.33013" lon="5.84466">
        <ele>1036.6</ele>
        <time>2012-02-14T09:55:32Z</time>
      </trkpt>
      <trkpt lat="45.33011" lon="5.84477">
        <ele>1038.4</ele>
        <time>2012-02-14T09:55:45Z</time>
      </trkpt>
      <trkpt lat="45.33007" lon="5.84488">
        <ele>1040</ele>
        <time>2012-02-14T09:55:55Z</time>
      </trkpt>
      <trkpt lat="45.33007" lon="5.84489">
        <ele>1040.3</ele>
        <time>2012-02-14T09:55:56Z</time>
      </trkpt>
      <trkpt lat="45.32999" lon="5.84509">
        <ele>1043.1</ele>
        <time>2012-02-14T09:56:15Z</time>
      </trkpt>
      <trkpt lat="45.32994" lon="5.84519">
        <ele>1043.4</ele>
        <time>2012-02-14T09:56:24Z</time>
      </trkpt>
      <trkpt lat="45.32989" lon="5.8453">
        <ele>1045.9</ele>
        <time>2012-02-14T09:56:36Z</time>
      </trkpt>
      <trkpt lat="45.32984" lon="5.84539">
        <ele>1047.4</ele>
        <time>2012-02-14T09:56:48Z</time>
      </trkpt>
      <trkpt lat="45.32977" lon="5.84547">
        <ele>1049.7</ele>
        <time>2012-02-14T09:57:00Z</time>
      </trkpt>
      <trkpt lat="45.32976" lon="5.84547">
        <ele>1049.7</ele>
        <time>2012-02-14T09:57:01Z</time>
      </trkpt>
      <trkpt lat="45.32976" lon="5.84547">
        <ele>1049.7</ele>
        <time>2012-02-14T09:57:01Z</time>
      </trkpt>
      <trkpt lat="45.32962" lon="5.84537">
        <ele>1053.8</ele>
        <time>2012-02-14T09:57:21Z</time>
      </trkpt>
      <trkpt lat="45.32959" lon="5.84525">
        <ele>1055.2</ele>
        <time>2012-02-14T09:57:33Z</time>
      </trkpt>
      <trkpt lat="45.32958" lon="5.84513">
        <ele>1056.4</ele>
        <time>2012-02-14T09:57:45Z</time>
      </trkpt>
      <trkpt lat="45.32957" lon="5.84501">
        <ele>1058</ele>
        <time>2012-02-14T09:57:55Z</time>
      </trkpt>
      <trkpt lat="45.32957" lon="5.84489">
        <ele>1058.9</ele>
        <time>2012-02-14T09:58:04Z</time>
      </trkpt>
      <trkpt lat="45.32956" lon="5.84488">
        <ele>1059.2</ele>
        <time>2012-02-14T09:58:05Z</time>
      </trkpt>
      <trkpt lat="45.32955" lon="5.84465">
        <ele>1061.4</ele>
        <time>2012-02-14T09:58:23Z</time>
      </trkpt>
      <trkpt lat="45.32953" lon="5.84453">
        <ele>1062.2</ele>
        <time>2012-02-14T09:58:33Z</time>
      </trkpt>
      <trkpt lat="45.32953" lon="5.84441">
        <ele>1063.6</ele>
        <time>2012-02-14T09:58:43Z</time>
      </trkpt>
      <trkpt lat="45.32955" lon="5.84429">
        <ele>1064.8</ele>
        <time>2012-02-14T09:58:54Z</time>
      </trkpt>
      <trkpt lat="45.32954" lon="5.84417">
        <ele>1065.6</ele>
        <time>2012-02-14T09:59:04Z</time>
      </trkpt>
      <trkpt lat="45.32956" lon="5.84405">
        <ele>1067.7</ele>
        <time>2012-02-14T09:59:15Z</time>
      </trkpt>
      <trkpt lat="45.32956" lon="5.84404">
        <ele>1067.7</ele>
        <time>2012-02-14T09:59:16Z</time>
      </trkpt>
      <trkpt lat="45.32956" lon="5.84381">
        <ele>1071.3</ele>
        <time>2012-02-14T09:59:37Z</time>
      </trkpt>
      <trkpt lat="45.32956" lon="5.84368">
        <ele>1073.8</ele>
        <time>2012-02-14T09:59:51Z</time>
      </trkpt>
      <trkpt lat="45.32957" lon="5.84356">
        <ele>1074.4</ele>
        <time>2012-02-14T10:00:02Z</time>
      </trkpt>
      <trkpt lat="45.32962" lon="5.84345">
        <ele>1077.4</ele>
        <time>2012-02-14T10:00:16Z</time>
      </trkpt>
      <trkpt lat="45.32962" lon="5.84344">
        <ele>1077.5</ele>
        <time>2012-02-14T10:00:17Z</time>
      </trkpt>
      <trkpt lat="45.32964" lon="5.84322">
        <ele>1079.9</ele>
        <time>2012-02-14T10:00:40Z</time>
      </trkpt>
      <trkpt lat="45.32964" lon="5.8431">
        <ele>1082.2</ele>
        <time>2012-02-14T10:00:50Z</time>
      </trkpt>
      <trkpt lat="45.32965" lon="5.84299">
        <ele>1084.7</ele>
        <time>2012-02-14T10:01:04Z</time>
      </trkpt>
      <trkpt lat="45.32968" lon="5.84287">
        <ele>1085.9</ele>
        <time>2012-02-14T10:01:15Z</time>
      </trkpt>
      <trkpt lat="45.32971" lon="5.84276">
        <ele>1087.2</ele>
        <time>2012-02-14T10:01:26Z</time>
      </trkpt>
      <trkpt lat="45.32971" lon="5.84275">
        <ele>1087.3</ele>
        <time>2012-02-14T10:01:27Z</time>
      </trkpt>
      <trkpt lat="45.32975" lon="5.84253">
        <ele>1092.9</ele>
        <time>2012-02-14T10:01:51Z</time>
      </trkpt>
      <trkpt lat="45.32979" lon="5.84243">
        <ele>1094.7</ele>
        <time>2012-02-14T10:02:00Z</time>
      </trkpt>
      <trkpt lat="45.3298" lon="5.8423">
        <ele>1095.7</ele>
        <time>2012-02-14T10:02:12Z</time>
      </trkpt>
      <trkpt lat="45.32979" lon="5.84218">
        <ele>1097.1</ele>
        <time>2012-02-14T10:02:23Z</time>
      </trkpt>
      <trkpt lat="45.32982" lon="5.84207">
        <ele>1100</ele>
        <time>2012-02-14T10:02:33Z</time>
      </trkpt>
      <trkpt lat="45.32983" lon="5.84206">
        <ele>1100.3</ele>
        <time>2012-02-14T10:02:34Z</time>
      </trkpt>
      <trkpt lat="45.32974" lon="5.84196">
        <ele>1103.7</ele>
        <time>2012-02-14T10:03:17Z</time>
      </trkpt>
      <trkpt lat="45.32982" lon="5.84207">
        <ele>1100</ele>
        <time>2012-02-14T10:02:33Z</time>
      </trkpt>
      <trkpt lat="45.32983" lon="5.84206">
        <ele>1100.3</ele>
        <time>2012-02-14T10:02:34Z</time>
      </trkpt>
      <trkpt lat="45.32974" lon="5.84196">
        <ele>1103.7</ele>
        <time>2012-02-14T10:03:17Z</time>
      </trkpt>
      <trkpt lat="45.32982" lon="5.84201">
        <ele>1102</ele>
        <time>2012-02-14T10:04:23Z</time>
      </trkpt>
      <trkpt lat="45.32983" lon="5.84201">
        <ele>1102.2</ele>
        <time>2012-02-14T10:04:24Z</time>
      </trkpt>
      <trkpt lat="45.32967" lon="5.84211">
        <ele>1106.5</ele>
        <time>2012-02-14T10:05:49Z</time>
      </trkpt>
      <trkpt lat="45.32966" lon="5.84212">
        <ele>1106.5</ele>
        <time>2012-02-14T10:05:50Z</time>
      </trkpt>
      <trkpt lat="45.32954" lon="5.84227">
        <ele>1107.6</ele>
        <time>2012-02-14T10:06:09Z</time>
      </trkpt>
      <trkpt lat="45.32947" lon="5.84234">
        <ele>1109.2</ele>
        <time>2012-02-14T10:06:19Z</time>
      </trkpt>
      <trkpt lat="45.32941" lon="5.84243">
        <ele>1110.3</ele>
        <time>2012-02-14T10:06:31Z</time>
      </trkpt>
      <trkpt lat="45.32934" lon="5.84249">
        <ele>1112.2</ele>
        <time>2012-02-14T10:06:40Z</time>
      </trkpt>
      <trkpt lat="45.32928" lon="5.84257">
        <ele>1113.7</ele>
        <time>2012-02-14T10:06:50Z</time>
      </trkpt>
      <trkpt lat="45.32927" lon="5.84258">
        <ele>1113.8</ele>
        <time>2012-02-14T10:06:51Z</time>
      </trkpt>
      <trkpt lat="45.32916" lon="5.84274">
        <ele>1117</ele>
        <time>2012-02-14T10:07:11Z</time>
      </trkpt>
      <trkpt lat="45.32909" lon="5.8428">
        <ele>1118.5</ele>
        <time>2012-02-14T10:07:21Z</time>
      </trkpt>
      <trkpt lat="45.32901" lon="5.84285">
        <ele>1120.9</ele>
        <time>2012-02-14T10:07:31Z</time>
      </trkpt>
      <trkpt lat="45.32895" lon="5.84295">
        <ele>1122.8</ele>
        <time>2012-02-14T10:07:43Z</time>
      </trkpt>
      <trkpt lat="45.3289" lon="5.84305">
        <ele>1124.5</ele>
        <time>2012-02-14T10:07:55Z</time>
      </trkpt>
      <trkpt lat="45.32889" lon="5.84305">
        <ele>1124.8</ele>
        <time>2012-02-14T10:07:56Z</time>
      </trkpt>
      <trkpt lat="45.32877" lon="5.8432">
        <ele>1128.6</ele>
        <time>2012-02-14T10:08:15Z</time>
      </trkpt>
      <trkpt lat="45.32872" lon="5.84329">
        <ele>1129.7</ele>
        <time>2012-02-14T10:08:26Z</time>
      </trkpt>
      <trkpt lat="45.32867" lon="5.8434">
        <ele>1132</ele>
        <time>2012-02-14T10:08:36Z</time>
      </trkpt>
      <trkpt lat="45.32861" lon="5.84348">
        <ele>1133.8</ele>
        <time>2012-02-14T10:08:46Z</time>
      </trkpt>
      <trkpt lat="45.32854" lon="5.84356">
        <ele>1135.8</ele>
        <time>2012-02-14T10:08:57Z</time>
      </trkpt>
      <trkpt lat="45.32853" lon="5.84357">
        <ele>1136.1</ele>
        <time>2012-02-14T10:08:58Z</time>
      </trkpt>
      <trkpt lat="45.3284" lon="5.84371">
        <ele>1137.9</ele>
        <time>2012-02-14T10:09:16Z</time>
      </trkpt>
      <trkpt lat="45.32833" lon="5.84378">
        <ele>1140.9</ele>
        <time>2012-02-14T10:09:29Z</time>
      </trkpt>
      <trkpt lat="45.32825" lon="5.84383">
        <ele>1143.2</ele>
        <time>2012-02-14T10:09:40Z</time>
      </trkpt>
      <trkpt lat="45.32817" lon="5.84387">
        <ele>1145.7</ele>
        <time>2012-02-14T10:09:51Z</time>
      </trkpt>
      <trkpt lat="45.32808" lon="5.84391">
        <ele>1147.5</ele>
        <time>2012-02-14T10:10:05Z</time>
      </trkpt>
      <trkpt lat="45.32807" lon="5.84391">
        <ele>1147.8</ele>
        <time>2012-02-14T10:10:06Z</time>
      </trkpt>
      <trkpt lat="45.32791" lon="5.84399">
        <ele>1152.1</ele>
        <time>2012-02-14T10:10:36Z</time>
      </trkpt>
      <trkpt lat="45.32784" lon="5.84405">
        <ele>1152.8</ele>
        <time>2012-02-14T10:10:46Z</time>
      </trkpt>
      <trkpt lat="45.32777" lon="5.84414">
        <ele>1155.2</ele>
        <time>2012-02-14T10:10:58Z</time>
      </trkpt>
      <trkpt lat="45.32772" lon="5.84424">
        <ele>1156.8</ele>
        <time>2012-02-14T10:11:10Z</time>
      </trkpt>
      <trkpt lat="45.32771" lon="5.84425">
        <ele>1156.5</ele>
        <time>2012-02-14T10:11:11Z</time>
      </trkpt>
      <trkpt lat="45.32756" lon="5.84435">
        <ele>1159.4</ele>
        <time>2012-02-14T10:11:32Z</time>
      </trkpt>
      <trkpt lat="45.32749" lon="5.84441">
        <ele>1161</ele>
        <time>2012-02-14T10:11:42Z</time>
      </trkpt>
      <trkpt lat="45.32742" lon="5.84449">
        <ele>1163</ele>
        <time>2012-02-14T10:11:52Z</time>
      </trkpt>
      <trkpt lat="45.32736" lon="5.84457">
        <ele>1164</ele>
        <time>2012-02-14T10:12:02Z</time>
      </trkpt>
      <trkpt lat="45.3273" lon="5.84465">
        <ele>1164.6</ele>
        <time>2012-02-14T10:12:12Z</time>
      </trkpt>
      <trkpt lat="45.32729" lon="5.84465">
        <ele>1164.6</ele>
        <time>2012-02-14T10:12:13Z</time>
      </trkpt>
      <trkpt lat="45.32726" lon="5.84456">
        <ele>1169.7</ele>
        <time>2012-02-14T10:12:43Z</time>
      </trkpt>
      <trkpt lat="45.32734" lon="5.84449">
        <ele>1171.2</ele>
        <time>2012-02-14T10:12:56Z</time>
      </trkpt>
      <trkpt lat="45.32729" lon="5.84438">
        <ele>1175.1</ele>
        <time>2012-02-14T10:13:19Z</time>
      </trkpt>
      <trkpt lat="45.32728" lon="5.84438">
        <ele>1175</ele>
        <time>2012-02-14T10:13:20Z</time>
      </trkpt>
      <trkpt lat="45.32712" lon="5.84436">
        <ele>1177.9</ele>
        <time>2012-02-14T10:13:39Z</time>
      </trkpt>
      <trkpt lat="45.32704" lon="5.84432">
        <ele>1179.2</ele>
        <time>2012-02-14T10:13:50Z</time>
      </trkpt>
      <trkpt lat="45.32696" lon="5.84428">
        <ele>1181.1</ele>
        <time>2012-02-14T10:14:01Z</time>
      </trkpt>
      <trkpt lat="45.32689" lon="5.84422">
        <ele>1182.9</ele>
        <time>2012-02-14T10:14:11Z</time>
      </trkpt>
      <trkpt lat="45.32681" lon="5.84418">
        <ele>1183.5</ele>
        <time>2012-02-14T10:14:21Z</time>
      </trkpt>
      <trkpt lat="45.3268" lon="5.84417">
        <ele>1183.6</ele>
        <time>2012-02-14T10:14:22Z</time>
      </trkpt>
      <trkpt lat="45.32664" lon="5.84411">
        <ele>1186.1</ele>
        <time>2012-02-14T10:14:44Z</time>
      </trkpt>
      <trkpt lat="45.32656" lon="5.84406">
        <ele>1188.2</ele>
        <time>2012-02-14T10:14:57Z</time>
      </trkpt>
      <trkpt lat="45.32647" lon="5.84405">
        <ele>1190.6</ele>
        <time>2012-02-14T10:15:10Z</time>
      </trkpt>
      <trkpt lat="45.32639" lon="5.84401">
        <ele>1192.6</ele>
        <time>2012-02-14T10:15:21Z</time>
      </trkpt>
      <trkpt lat="45.3263" lon="5.84397">
        <ele>1194</ele>
        <time>2012-02-14T10:15:34Z</time>
      </trkpt>
      <trkpt lat="45.3263" lon="5.84397">
        <ele>1194.1</ele>
        <time>2012-02-14T10:15:35Z</time>
      </trkpt>
      <trkpt lat="45.32613" lon="5.84396">
        <ele>1198.6</ele>
        <time>2012-02-14T10:15:57Z</time>
      </trkpt>
      <trkpt lat="45.32605" lon="5.84395">
        <ele>1199.7</ele>
        <time>2012-02-14T10:16:08Z</time>
      </trkpt>
      <trkpt lat="45.32597" lon="5.84393">
        <ele>1201.7</ele>
        <time>2012-02-14T10:16:20Z</time>
      </trkpt>
      <trkpt lat="45.32588" lon="5.84392">
        <ele>1202.6</ele>
        <time>2012-02-14T10:16:31Z</time>
      </trkpt>
      <trkpt lat="45.32579" lon="5.84394">
        <ele>1205.3</ele>
        <time>2012-02-14T10:16:40Z</time>
      </trkpt>
      <trkpt lat="45.32578" lon="5.84393">
        <ele>1205.5</ele>
        <time>2012-02-14T10:16:41Z</time>
      </trkpt>
      <trkpt lat="45.32562" lon="5.84393">
        <ele>1208.9</ele>
        <time>2012-02-14T10:17:04Z</time>
      </trkpt>
      <trkpt lat="45.32554" lon="5.84392">
        <ele>1209.4</ele>
        <time>2012-02-14T10:17:13Z</time>
      </trkpt>
      <trkpt lat="45.32545" lon="5.84396">
        <ele>1212.9</ele>
        <time>2012-02-14T10:17:27Z</time>
      </trkpt>
      <trkpt lat="45.32537" lon="5.844">
        <ele>1215.9</ele>
        <time>2012-02-14T10:17:43Z</time>
      </trkpt>
      <trkpt lat="45.32537" lon="5.844">
        <ele>1216.2</ele>
        <time>2012-02-14T10:17:44Z</time>
      </trkpt>
      <trkpt lat="45.3252" lon="5.844">
        <ele>1219.5</ele>
        <time>2012-02-14T10:18:12Z</time>
      </trkpt>
      <trkpt lat="45.32512" lon="5.84404">
        <ele>1222.2</ele>
        <time>2012-02-14T10:18:29Z</time>
      </trkpt>
      <trkpt lat="45.32504" lon="5.84408">
        <ele>1224.2</ele>
        <time>2012-02-14T10:18:40Z</time>
      </trkpt>
      <trkpt lat="45.32496" lon="5.84415">
        <ele>1226.1</ele>
        <time>2012-02-14T10:18:52Z</time>
      </trkpt>
      <trkpt lat="45.32495" lon="5.84416">
        <ele>1226.3</ele>
        <time>2012-02-14T10:18:53Z</time>
      </trkpt>
      <trkpt lat="45.3248" lon="5.84423">
        <ele>1229.7</ele>
        <time>2012-02-14T10:19:10Z</time>
      </trkpt>
      <trkpt lat="45.32473" lon="5.84428">
        <ele>1230.7</ele>
        <time>2012-02-14T10:19:20Z</time>
      </trkpt>
      <trkpt lat="45.32466" lon="5.84433">
        <ele>1231.2</ele>
        <time>2012-02-14T10:19:29Z</time>
      </trkpt>
      <trkpt lat="45.32459" lon="5.8444">
        <ele>1232.3</ele>
        <time>2012-02-14T10:19:39Z</time>
      </trkpt>
      <trkpt lat="45.32452" lon="5.84448">
        <ele>1234.3</ele>
        <time>2012-02-14T10:19:49Z</time>
      </trkpt>
      <trkpt lat="45.32446" lon="5.84456">
        <ele>1235.9</ele>
        <time>2012-02-14T10:19:58Z</time>
      </trkpt>
      <trkpt lat="45.32445" lon="5.84456">
        <ele>1236</ele>
        <time>2012-02-14T10:19:59Z</time>
      </trkpt>
      <trkpt lat="45.32431" lon="5.84467">
        <ele>1238.5</ele>
        <time>2012-02-14T10:20:18Z</time>
      </trkpt>
      <trkpt lat="45.32423" lon="5.84471">
        <ele>1239.4</ele>
        <time>2012-02-14T10:20:27Z</time>
      </trkpt>
      <trkpt lat="45.32415" lon="5.84475">
        <ele>1240.8</ele>
        <time>2012-02-14T10:20:38Z</time>
      </trkpt>
      <trkpt lat="45.32406" lon="5.84479">
        <ele>1242</ele>
        <time>2012-02-14T10:21:11Z</time>
      </trkpt>
      <trkpt lat="45.32406" lon="5.84479">
        <ele>1242.2</ele>
        <time>2012-02-14T10:21:12Z</time>
      </trkpt>
      <trkpt lat="45.32389" lon="5.84486">
        <ele>1248.2</ele>
        <time>2012-02-14T10:21:40Z</time>
      </trkpt>
      <trkpt lat="45.32381" lon="5.8449">
        <ele>1251.5</ele>
        <time>2012-02-14T10:21:54Z</time>
      </trkpt>
      <trkpt lat="45.32372" lon="5.84492">
        <ele>1252.9</ele>
        <time>2012-02-14T10:22:06Z</time>
      </trkpt>
      <trkpt lat="45.32363" lon="5.84493">
        <ele>1255.6</ele>
        <time>2012-02-14T10:22:19Z</time>
      </trkpt>
      <trkpt lat="45.32363" lon="5.84493">
        <ele>1255.7</ele>
        <time>2012-02-14T10:22:20Z</time>
      </trkpt>
      <trkpt lat="45.32347" lon="5.84487">
        <ele>1261.5</ele>
        <time>2012-02-14T10:22:46Z</time>
      </trkpt>
      <trkpt lat="45.32338" lon="5.84485">
        <ele>1264.4</ele>
        <time>2012-02-14T10:23:02Z</time>
      </trkpt>
      <trkpt lat="45.32329" lon="5.84484">
        <ele>1269.7</ele>
        <time>2012-02-14T10:23:22Z</time>
      </trkpt>
      <trkpt lat="45.32329" lon="5.84485">
        <ele>1269.6</ele>
        <time>2012-02-14T10:23:23Z</time>
      </trkpt>
      <trkpt lat="45.32312" lon="5.84487">
        <ele>1273.4</ele>
        <time>2012-02-14T10:23:48Z</time>
      </trkpt>
      <trkpt lat="45.32303" lon="5.84487">
        <ele>1275.7</ele>
        <time>2012-02-14T10:23:59Z</time>
      </trkpt>
      <trkpt lat="45.32294" lon="5.84487">
        <ele>1276.4</ele>
        <time>2012-02-14T10:24:09Z</time>
      </trkpt>
      <trkpt lat="45.32286" lon="5.84487">
        <ele>1277.6</ele>
        <time>2012-02-14T10:24:20Z</time>
      </trkpt>
      <trkpt lat="45.32277" lon="5.84489">
        <ele>1279.5</ele>
        <time>2012-02-14T10:24:30Z</time>
      </trkpt>
      <trkpt lat="45.32276" lon="5.84489">
        <ele>1279.7</ele>
        <time>2012-02-14T10:24:31Z</time>
      </trkpt>
      <trkpt lat="45.3226" lon="5.84489">
        <ele>1280.2</ele>
        <time>2012-02-14T10:24:49Z</time>
      </trkpt>
      <trkpt lat="45.32251" lon="5.84486">
        <ele>1282</ele>
        <time>2012-02-14T10:24:59Z</time>
      </trkpt>
      <trkpt lat="45.32243" lon="5.84484">
        <ele>1285.2</ele>
        <time>2012-02-14T10:25:13Z</time>
      </trkpt>
      <trkpt lat="45.32235" lon="5.84482">
        <ele>1288</ele>
        <time>2012-02-14T10:25:29Z</time>
      </trkpt>
      <trkpt lat="45.32226" lon="5.8448">
        <ele>1290.4</ele>
        <time>2012-02-14T10:25:44Z</time>
      </trkpt>
      <trkpt lat="45.32225" lon="5.8448">
        <ele>1290.9</ele>
        <time>2012-02-14T10:25:45Z</time>
      </trkpt>
      <trkpt lat="45.32209" lon="5.84483">
        <ele>1295.5</ele>
        <time>2012-02-14T10:26:11Z</time>
      </trkpt>
      <trkpt lat="45.32226" lon="5.8448">
        <ele>1290.4</ele>
        <time>2012-02-14T10:25:44Z</time>
      </trkpt>
      <trkpt lat="45.32225" lon="5.8448">
        <ele>1290.9</ele>
        <time>2012-02-14T10:25:45Z</time>
      </trkpt>
      <trkpt lat="45.32209" lon="5.84483">
        <ele>1295.5</ele>
        <time>2012-02-14T10:26:11Z</time>
      </trkpt>
      <trkpt lat="45.32201" lon="5.84486">
        <ele>1298.1</ele>
        <time>2012-02-14T10:26:23Z</time>
      </trkpt>
      <trkpt lat="45.32192" lon="5.84488">
        <ele>1300.4</ele>
        <time>2012-02-14T10:26:36Z</time>
      </trkpt>
      <trkpt lat="45.32183" lon="5.8449">
        <ele>1303.3</ele>
        <time>2012-02-14T10:26:50Z</time>
      </trkpt>
      <trkpt lat="45.32183" lon="5.8449">
        <ele>1303.7</ele>
        <time>2012-02-14T10:26:51Z</time>
      </trkpt>
      <trkpt lat="45.32168" lon="5.84499">
        <ele>1308.6</ele>
        <time>2012-02-14T10:27:26Z</time>
      </trkpt>
      <trkpt lat="45.3216" lon="5.84503">
        <ele>1309.9</ele>
        <time>2012-02-14T10:27:36Z</time>
      </trkpt>
      <trkpt lat="45.32152" lon="5.84503">
        <ele>1312.5</ele>
        <time>2012-02-14T10:27:47Z</time>
      </trkpt>
      <trkpt lat="45.32143" lon="5.84502">
        <ele>1314.4</ele>
        <time>2012-02-14T10:27:58Z</time>
      </trkpt>
      <trkpt lat="45.32143" lon="5.84502">
        <ele>1314.4</ele>
        <time>2012-02-14T10:27:59Z</time>
      </trkpt>
      <trkpt lat="45.32126" lon="5.845">
        <ele>1320</ele>
        <time>2012-02-14T10:28:26Z</time>
      </trkpt>
      <trkpt lat="45.32117" lon="5.84499">
        <ele>1323.3</ele>
        <time>2012-02-14T10:28:40Z</time>
      </trkpt>
      <trkpt lat="45.32108" lon="5.845">
        <ele>1325.4</ele>
        <time>2012-02-14T10:28:53Z</time>
      </trkpt>
      <trkpt lat="45.321" lon="5.84498">
        <ele>1326.5</ele>
        <time>2012-02-14T10:29:05Z</time>
      </trkpt>
      <trkpt lat="45.321" lon="5.84498">
        <ele>1326.5</ele>
        <time>2012-02-14T10:29:05Z</time>
      </trkpt>
      <trkpt lat="45.32099" lon="5.84498">
        <ele>1326.9</ele>
        <time>2012-02-14T10:29:06Z</time>
      </trkpt>
      <trkpt lat="45.32086" lon="5.84482">
        <ele>1333.2</ele>
        <time>2012-02-14T10:29:37Z</time>
      </trkpt>
      <trkpt lat="45.32079" lon="5.84475">
        <ele>1337.1</ele>
        <time>2012-02-14T10:29:50Z</time>
      </trkpt>
      <trkpt lat="45.32071" lon="5.84471">
        <ele>1339</ele>
        <time>2012-02-14T10:30:01Z</time>
      </trkpt>
      <trkpt lat="45.32062" lon="5.8447">
        <ele>1315</ele>
        <time>2012-02-14T10:30:13Z</time>
      </trkpt>
      <trkpt lat="45.32062" lon="5.8447">
        <ele>1314.7</ele>
        <time>2012-02-14T10:30:14Z</time>
      </trkpt>
      <trkpt lat="45.32045" lon="5.84463">
        <ele>1317.9</ele>
        <time>2012-02-14T10:30:35Z</time>
      </trkpt>
      <trkpt lat="45.32037" lon="5.84461">
        <ele>1319</ele>
        <time>2012-02-14T10:30:47Z</time>
      </trkpt>
      <trkpt lat="45.32028" lon="5.84463">
        <ele>1320.5</ele>
        <time>2012-02-14T10:30:58Z</time>
      </trkpt>
      <trkpt lat="45.3202" lon="5.84463">
        <ele>1322.4</ele>
        <time>2012-02-14T10:31:08Z</time>
      </trkpt>
      <trkpt lat="45.32012" lon="5.8446">
        <ele>1323.8</ele>
        <time>2012-02-14T10:31:18Z</time>
      </trkpt>
      <trkpt lat="45.32011" lon="5.8446">
        <ele>1324</ele>
        <time>2012-02-14T10:31:19Z</time>
      </trkpt>
      <trkpt lat="45.31995" lon="5.84456">
        <ele>1326.5</ele>
        <time>2012-02-14T10:32:16Z</time>
      </trkpt>
      <trkpt lat="45.31986" lon="5.84458">
        <ele>1327.8</ele>
        <time>2012-02-14T10:33:26Z</time>
      </trkpt>
      <trkpt lat="45.31985" lon="5.84457">
        <ele>1328.1</ele>
        <time>2012-02-14T10:33:27Z</time>
      </trkpt>
      <trkpt lat="45.31969" lon="5.84453">
        <ele>1330.5</ele>
        <time>2012-02-14T10:33:45Z</time>
      </trkpt>
      <trkpt lat="45.3196" lon="5.8445">
        <ele>1330.8</ele>
        <time>2012-02-14T10:33:54Z</time>
      </trkpt>
      <trkpt lat="45.31952" lon="5.84448">
        <ele>1333</ele>
        <time>2012-02-14T10:34:03Z</time>
      </trkpt>
      <trkpt lat="45.31943" lon="5.84448">
        <ele>1333.3</ele>
        <time>2012-02-14T10:34:12Z</time>
      </trkpt>
      <trkpt lat="45.31935" lon="5.84448">
        <ele>1333.8</ele>
        <time>2012-02-14T10:34:20Z</time>
      </trkpt>
      <trkpt lat="45.31926" lon="5.84446">
        <ele>1334.4</ele>
        <time>2012-02-14T10:34:29Z</time>
      </trkpt>
      <trkpt lat="45.31925" lon="5.84446">
        <ele>1334.4</ele>
        <time>2012-02-14T10:34:30Z</time>
      </trkpt>
      <trkpt lat="45.31909" lon="5.84439">
        <ele>1337.7</ele>
        <time>2012-02-14T10:34:50Z</time>
      </trkpt>
      <trkpt lat="45.31901" lon="5.84438">
        <ele>1340.1</ele>
        <time>2012-02-14T10:35:03Z</time>
      </trkpt>
      <trkpt lat="45.31893" lon="5.84435">
        <ele>1342.4</ele>
        <time>2012-02-14T10:35:16Z</time>
      </trkpt>
      <trkpt lat="45.31885" lon="5.84431">
        <ele>1344.9</ele>
        <time>2012-02-14T10:35:28Z</time>
      </trkpt>
      <trkpt lat="45.31877" lon="5.84425">
        <ele>1347.1</ele>
        <time>2012-02-14T10:35:41Z</time>
      </trkpt>
      <trkpt lat="45.31877" lon="5.84424">
        <ele>1347.1</ele>
        <time>2012-02-14T10:35:42Z</time>
      </trkpt>
      <trkpt lat="45.31861" lon="5.84414">
        <ele>1353.4</ele>
        <time>2012-02-14T10:36:12Z</time>
      </trkpt>
      <trkpt lat="45.31854" lon="5.84408">
        <ele>1354.5</ele>
        <time>2012-02-14T10:36:23Z</time>
      </trkpt>
      <trkpt lat="45.31846" lon="5.84401">
        <ele>1356.6</ele>
        <time>2012-02-14T10:36:34Z</time>
      </trkpt>
      <trkpt lat="45.31838" lon="5.84397">
        <ele>1357</ele>
        <time>2012-02-14T10:36:43Z</time>
      </trkpt>
      <trkpt lat="45.31837" lon="5.84397">
        <ele>1356.6</ele>
        <time>2012-02-14T10:36:44Z</time>
      </trkpt>
      <trkpt lat="45.31822" lon="5.84388">
        <ele>1358.4</ele>
        <time>2012-02-14T10:37:01Z</time>
      </trkpt>
      <trkpt lat="45.31815" lon="5.84381">
        <ele>1359.5</ele>
        <time>2012-02-14T10:37:10Z</time>
      </trkpt>
      <trkpt lat="45.31807" lon="5.84376">
        <ele>1359.5</ele>
        <time>2012-02-14T10:37:19Z</time>
      </trkpt>
      <trkpt lat="45.31799" lon="5.84373">
        <ele>1359.7</ele>
        <time>2012-02-14T10:37:27Z</time>
      </trkpt>
      <trkpt lat="45.31791" lon="5.84369">
        <ele>1361.4</ele>
        <time>2012-02-14T10:37:37Z</time>
      </trkpt>
      <trkpt lat="45.31783" lon="5.84364">
        <ele>1364.1</ele>
        <time>2012-02-14T10:38:02Z</time>
      </trkpt>
      <trkpt lat="45.31782" lon="5.84364">
        <ele>1364.1</ele>
        <time>2012-02-14T10:38:03Z</time>
      </trkpt>
      <trkpt lat="45.31767" lon="5.8436">
        <ele>1364.6</ele>
        <time>2012-02-14T10:41:00Z</time>
      </trkpt>
      <trkpt lat="45.31767" lon="5.8436">
        <ele>1364.9</ele>
        <time>2012-02-14T10:41:01Z</time>
      </trkpt>
      <trkpt lat="45.31751" lon="5.84358">
        <ele>1367.5</ele>
        <time>2012-02-14T10:41:20Z</time>
      </trkpt>
      <trkpt lat="45.31742" lon="5.84357">
        <ele>1367.4</ele>
        <time>2012-02-14T10:41:30Z</time>
      </trkpt>
      <trkpt lat="45.31733" lon="5.84356">
        <ele>1369.4</ele>
        <time>2012-02-14T10:41:38Z</time>
      </trkpt>
      <trkpt lat="45.31725" lon="5.84355">
        <ele>1369.2</ele>
        <time>2012-02-14T10:41:48Z</time>
      </trkpt>
      <trkpt lat="45.31716" lon="5.84354">
        <ele>1371.5</ele>
        <time>2012-02-14T10:41:59Z</time>
      </trkpt>
      <trkpt lat="45.31707" lon="5.84353">
        <ele>1373.1</ele>
        <time>2012-02-14T10:42:10Z</time>
      </trkpt>
      <trkpt lat="45.31707" lon="5.84353">
        <ele>1373.7</ele>
        <time>2012-02-14T10:42:11Z</time>
      </trkpt>
      <trkpt lat="45.31691" lon="5.84347">
        <ele>1377.5</ele>
        <time>2012-02-14T10:42:31Z</time>
      </trkpt>
      <trkpt lat="45.31682" lon="5.84345">
        <ele>1380.8</ele>
        <time>2012-02-14T10:42:49Z</time>
      </trkpt>
      <trkpt lat="45.31676" lon="5.84351">
        <ele>1381.3</ele>
        <time>2012-02-14T10:43:01Z</time>
      </trkpt>
      <trkpt lat="45.3167" lon="5.8436">
        <ele>1381.5</ele>
        <time>2012-02-14T10:43:15Z</time>
      </trkpt>
      <trkpt lat="45.31657" lon="5.84353">
        <ele>1389.5</ele>
        <time>2012-02-14T10:44:05Z</time>
      </trkpt>
      <trkpt lat="45.31648" lon="5.84354">
        <ele>1392.5</ele>
        <time>2012-02-14T10:44:20Z</time>
      </trkpt>
      <trkpt lat="45.31648" lon="5.84354">
        <ele>1392.8</ele>
        <time>2012-02-14T10:44:21Z</time>
      </trkpt>
      <trkpt lat="45.31631" lon="5.84347">
        <ele>1399.4</ele>
        <time>2012-02-14T10:44:52Z</time>
      </trkpt>
      <trkpt lat="45.31623" lon="5.84342">
        <ele>1403.4</ele>
        <time>2012-02-14T10:45:09Z</time>
      </trkpt>
      <trkpt lat="45.31614" lon="5.84342">
        <ele>1406.3</ele>
        <time>2012-02-14T10:45:27Z</time>
      </trkpt>
      <trkpt lat="45.31614" lon="5.84342">
        <ele>1406.7</ele>
        <time>2012-02-14T10:45:28Z</time>
      </trkpt>
      <trkpt lat="45.31608" lon="5.84333">
        <ele>1409.6</ele>
        <time>2012-02-14T10:47:08Z</time>
      </trkpt>
      <trkpt lat="45.31636" lon="5.84315">
        <ele>1420.9</ele>
        <time>2012-02-14T10:48:12Z</time>
      </trkpt>
      <trkpt lat="45.31635" lon="5.84314">
        <ele>1421.1</ele>
        <time>2012-02-14T10:48:13Z</time>
      </trkpt>
      <trkpt lat="45.31622" lon="5.84299">
        <ele>1424.9</ele>
        <time>2012-02-14T10:48:32Z</time>
      </trkpt>
      <trkpt lat="45.31615" lon="5.84293">
        <ele>1426.3</ele>
        <time>2012-02-14T10:48:42Z</time>
      </trkpt>
      <trkpt lat="45.31608" lon="5.84288">
        <ele>1428.1</ele>
        <time>2012-02-14T10:48:55Z</time>
      </trkpt>
      <trkpt lat="45.31601" lon="5.8428">
        <ele>1432.6</ele>
        <time>2012-02-14T10:49:13Z</time>
      </trkpt>
      <trkpt lat="45.316" lon="5.8428">
        <ele>1432.8</ele>
        <time>2012-02-14T10:49:14Z</time>
      </trkpt>
      <trkpt lat="45.31586" lon="5.84268">
        <ele>1438.4</ele>
        <time>2012-02-14T10:49:42Z</time>
      </trkpt>
      <trkpt lat="45.31577" lon="5.84264">
        <ele>1441.2</ele>
        <time>2012-02-14T10:49:55Z</time>
      </trkpt>
      <trkpt lat="45.31572" lon="5.84255">
        <ele>1444.4</ele>
        <time>2012-02-14T10:50:14Z</time>
      </trkpt>
      <trkpt lat="45.31571" lon="5.84254">
        <ele>1444.4</ele>
        <time>2012-02-14T10:50:15Z</time>
      </trkpt>
      <trkpt lat="45.31566" lon="5.84231">
        <ele>1450.4</ele>
        <time>2012-02-14T10:50:46Z</time>
      </trkpt>
      <trkpt lat="45.31565" lon="5.84219">
        <ele>1455.4</ele>
        <time>2012-02-14T10:51:04Z</time>
      </trkpt>
      <trkpt lat="45.3156" lon="5.84208">
        <ele>1458.6</ele>
        <time>2012-02-14T10:51:18Z</time>
      </trkpt>
      <trkpt lat="45.3156" lon="5.84208">
        <ele>1458.6</ele>
        <time>2012-02-14T10:51:19Z</time>
      </trkpt>
      <trkpt lat="45.31545" lon="5.84197">
        <ele>1460.2</ele>
        <time>2012-02-14T10:51:36Z</time>
      </trkpt>
      <trkpt lat="45.31538" lon="5.84192">
        <ele>1462.4</ele>
        <time>2012-02-14T10:51:47Z</time>
      </trkpt>
      <trkpt lat="45.31531" lon="5.84184">
        <ele>1465.1</ele>
        <time>2012-02-14T10:52:00Z</time>
      </trkpt>
      <trkpt lat="45.31523" lon="5.84179">
        <ele>1466.2</ele>
        <time>2012-02-14T10:52:09Z</time>
      </trkpt>
      <trkpt lat="45.31514" lon="5.84177">
        <ele>1469.3</ele>
        <time>2012-02-14T10:52:19Z</time>
      </trkpt>
      <trkpt lat="45.31514" lon="5.84177">
        <ele>1469.8</ele>
        <time>2012-02-14T10:52:20Z</time>
      </trkpt>
      <trkpt lat="45.31498" lon="5.84178">
        <ele>1473.4</ele>
        <time>2012-02-14T10:52:42Z</time>
      </trkpt>
      <trkpt lat="45.31489" lon="5.84176">
        <ele>1475.5</ele>
        <time>2012-02-14T10:52:55Z</time>
      </trkpt>
      <trkpt lat="45.31481" lon="5.84178">
        <ele>1479.1</ele>
        <time>2012-02-14T10:53:07Z</time>
      </trkpt>
      <trkpt lat="45.31473" lon="5.84182">
        <ele>1480</ele>
        <time>2012-02-14T10:53:18Z</time>
      </trkpt>
      <trkpt lat="45.31464" lon="5.84184">
        <ele>1481.9</ele>
        <time>2012-02-14T10:53:29Z</time>
      </trkpt>
      <trkpt lat="45.31463" lon="5.84184">
        <ele>1481.8</ele>
        <time>2012-02-14T10:53:30Z</time>
      </trkpt>
      <trkpt lat="45.31448" lon="5.84182">
        <ele>1484.6</ele>
        <time>2012-02-14T10:53:49Z</time>
      </trkpt>
      <trkpt lat="45.31439" lon="5.8418">
        <ele>1486.2</ele>
        <time>2012-02-14T10:53:58Z</time>
      </trkpt>
      <trkpt lat="45.31431" lon="5.84178">
        <ele>1486.3</ele>
        <time>2012-02-14T10:54:07Z</time>
      </trkpt>
      <trkpt lat="45.31424" lon="5.84171">
        <ele>1488.1</ele>
        <time>2012-02-14T10:57:53Z</time>
      </trkpt>
      <trkpt lat="45.31423" lon="5.84171">
        <ele>1488.2</ele>
        <time>2012-02-14T10:57:54Z</time>
      </trkpt>
      <trkpt lat="45.31415" lon="5.84169">
        <ele>1488.2</ele>
        <time>2012-02-14T10:59:09Z</time>
      </trkpt>
      <trkpt lat="45.31423" lon="5.84175">
        <ele>1487.8</ele>
        <time>2012-02-14T11:00:21Z</time>
      </trkpt>
      <trkpt lat="45.31408" lon="5.84185">
        <ele>1487.3</ele>
        <time>2012-02-14T11:00:45Z</time>
      </trkpt>
      <trkpt lat="45.31399" lon="5.84184">
        <ele>1487.6</ele>
        <time>2012-02-14T11:00:59Z</time>
      </trkpt>
      <trkpt lat="45.31391" lon="5.84183">
        <ele>1490</ele>
        <time>2012-02-14T11:01:10Z</time>
      </trkpt>
      <trkpt lat="45.31382" lon="5.84181">
        <ele>1491.4</ele>
        <time>2012-02-14T11:01:20Z</time>
      </trkpt>
      <trkpt lat="45.31374" lon="5.84177">
        <ele>1491.2</ele>
        <time>2012-02-14T11:01:30Z</time>
      </trkpt>
      <trkpt lat="45.31373" lon="5.84176">
        <ele>1491.3</ele>
        <time>2012-02-14T11:01:31Z</time>
      </trkpt>
      <trkpt lat="45.31357" lon="5.84173">
        <ele>1496.7</ele>
        <time>2012-02-14T11:01:55Z</time>
      </trkpt>
      <trkpt lat="45.31349" lon="5.84169">
        <ele>1499.3</ele>
        <time>2012-02-14T11:02:07Z</time>
      </trkpt>
      <trkpt lat="45.31341" lon="5.84164">
        <ele>1502.1</ele>
        <time>2012-02-14T11:02:22Z</time>
      </trkpt>
      <trkpt lat="45.31333" lon="5.84158">
        <ele>1504.8</ele>
        <time>2012-02-14T11:02:43Z</time>
      </trkpt>
      <trkpt lat="45.31333" lon="5.84158">
        <ele>1505</ele>
        <time>2012-02-14T11:02:44Z</time>
      </trkpt>
      <trkpt lat="45.31318" lon="5.84147">
        <ele>1509.3</ele>
        <time>2012-02-14T11:03:05Z</time>
      </trkpt>
      <trkpt lat="45.31311" lon="5.84143">
        <ele>1511.3</ele>
        <time>2012-02-14T11:03:15Z</time>
      </trkpt>
      <trkpt lat="45.31303" lon="5.84137">
        <ele>1512.5</ele>
        <time>2012-02-14T11:03:29Z</time>
      </trkpt>
      <trkpt lat="45.31295" lon="5.84134">
        <ele>1514.3</ele>
        <time>2012-02-14T11:03:43Z</time>
      </trkpt>
      <trkpt lat="45.31286" lon="5.84129">
        <ele>1518.4</ele>
        <time>2012-02-14T11:03:57Z</time>
      </trkpt>
      <trkpt lat="45.31286" lon="5.84128">
        <ele>1518.6</ele>
        <time>2012-02-14T11:03:58Z</time>
      </trkpt>
      <trkpt lat="45.31271" lon="5.8412">
        <ele>1520.9</ele>
        <time>2012-02-14T11:04:29Z</time>
      </trkpt>
      <trkpt lat="45.31262" lon="5.84124">
        <ele>1521.9</ele>
        <time>2012-02-14T11:04:39Z</time>
      </trkpt>
      <trkpt lat="45.31254" lon="5.84124">
        <ele>1522.7</ele>
        <time>2012-02-14T11:04:50Z</time>
      </trkpt>
      <trkpt lat="45.31246" lon="5.84123">
        <ele>1525</ele>
        <time>2012-02-14T11:05:00Z</time>
      </trkpt>
      <trkpt lat="45.31245" lon="5.84122">
        <ele>1525.2</ele>
        <time>2012-02-14T11:05:01Z</time>
      </trkpt>
      <trkpt lat="45.3123" lon="5.84114">
        <ele>1527.1</ele>
        <time>2012-02-14T11:05:19Z</time>
      </trkpt>
      <trkpt lat="45.31221" lon="5.8411">
        <ele>1528.1</ele>
        <time>2012-02-14T11:05:29Z</time>
      </trkpt>
      <trkpt lat="45.31213" lon="5.84106">
        <ele>1528.4</ele>
        <time>2012-02-14T11:05:40Z</time>
      </trkpt>
      <trkpt lat="45.31206" lon="5.841">
        <ele>1531.5</ele>
        <time>2012-02-14T11:05:51Z</time>
      </trkpt>
      <trkpt lat="45.31197" lon="5.84096">
        <ele>1531.4</ele>
        <time>2012-02-14T11:06:01Z</time>
      </trkpt>
      <trkpt lat="45.31197" lon="5.84097">
        <ele>1531.7</ele>
        <time>2012-02-14T11:06:02Z</time>
      </trkpt>
      <trkpt lat="45.31181" lon="5.84103">
        <ele>1531.6</ele>
        <time>2012-02-14T11:07:08Z</time>
      </trkpt>
      <trkpt lat="45.31181" lon="5.84102">
        <ele>1531.5</ele>
        <time>2012-02-14T11:07:09Z</time>
      </trkpt>
      <trkpt lat="45.31167" lon="5.84091">
        <ele>1534.2</ele>
        <time>2012-02-14T11:08:14Z</time>
      </trkpt>
      <trkpt lat="45.31166" lon="5.84091">
        <ele>1534.5</ele>
        <time>2012-02-14T11:08:15Z</time>
      </trkpt>
      <trkpt lat="45.31149" lon="5.84091">
        <ele>1538.9</ele>
        <time>2012-02-14T11:08:39Z</time>
      </trkpt>
      <trkpt lat="45.31141" lon="5.84093">
        <ele>1540.8</ele>
        <time>2012-02-14T11:08:49Z</time>
      </trkpt>
      <trkpt lat="45.31132" lon="5.84097">
        <ele>1542.6</ele>
        <time>2012-02-14T11:09:01Z</time>
      </trkpt>
      <trkpt lat="45.31124" lon="5.84101">
        <ele>1543.7</ele>
        <time>2012-02-14T11:09:12Z</time>
      </trkpt>
      <trkpt lat="45.31116" lon="5.84106">
        <ele>1546.9</ele>
        <time>2012-02-14T11:09:24Z</time>
      </trkpt>
      <trkpt lat="45.31116" lon="5.84106">
        <ele>1547.1</ele>
        <time>2012-02-14T11:09:25Z</time>
      </trkpt>
      <trkpt lat="45.31116" lon="5.84106">
        <ele>1547.1</ele>
        <time>2012-02-14T11:09:25Z</time>
      </trkpt>
      <trkpt lat="45.31108" lon="5.84127">
        <ele>1552</ele>
        <time>2012-02-14T11:09:51Z</time>
      </trkpt>
      <trkpt lat="45.31103" lon="5.84137">
        <ele>1552.3</ele>
        <time>2012-02-14T11:10:01Z</time>
      </trkpt>
      <trkpt lat="45.31096" lon="5.84144">
        <ele>1553.9</ele>
        <time>2012-02-14T11:10:11Z</time>
      </trkpt>
      <trkpt lat="45.31089" lon="5.84151">
        <ele>1555</ele>
        <time>2012-02-14T11:10:22Z</time>
      </trkpt>
      <trkpt lat="45.31084" lon="5.84161">
        <ele>1555.8</ele>
        <time>2012-02-14T11:10:32Z</time>
      </trkpt>
      <trkpt lat="45.31084" lon="5.84163">
        <ele>1555.5</ele>
        <time>2012-02-14T11:10:33Z</time>
      </trkpt>
      <trkpt lat="45.31073" lon="5.84179">
        <ele>1557.7</ele>
        <time>2012-02-14T11:10:59Z</time>
      </trkpt>
      <trkpt lat="45.31073" lon="5.84179">
        <ele>1557.7</ele>
        <time>2012-02-14T11:10:59Z</time>
      </trkpt>
      <trkpt lat="45.31064" lon="5.84178">
        <ele>1560.1</ele>
        <time>2012-02-14T11:11:16Z</time>
      </trkpt>
      <trkpt lat="45.31059" lon="5.84167">
        <ele>1562.3</ele>
        <time>2012-02-14T11:12:22Z</time>
      </trkpt>
      <trkpt lat="45.31059" lon="5.84167">
        <ele>1562.4</ele>
        <time>2012-02-14T11:12:23Z</time>
      </trkpt>
      <trkpt lat="45.3106" lon="5.84153">
        <ele>1564.2</ele>
        <time>2012-02-14T11:15:48Z</time>
      </trkpt>
      <trkpt lat="45.31061" lon="5.8413">
        <ele>1566.1</ele>
        <time>2012-02-14T11:16:04Z</time>
      </trkpt>
      <trkpt lat="45.31061" lon="5.84118">
        <ele>1567.1</ele>
        <time>2012-02-14T11:16:13Z</time>
      </trkpt>
      <trkpt lat="45.3106" lon="5.84106">
        <ele>1568.3</ele>
        <time>2012-02-14T11:16:23Z</time>
      </trkpt>
      <trkpt lat="45.3106" lon="5.84094">
        <ele>1569.2</ele>
        <time>2012-02-14T11:16:33Z</time>
      </trkpt>
      <trkpt lat="45.31059" lon="5.84082">
        <ele>1570.4</ele>
        <time>2012-02-14T11:16:43Z</time>
      </trkpt>
      <trkpt lat="45.31058" lon="5.8407">
        <ele>1572.5</ele>
        <time>2012-02-14T11:16:53Z</time>
      </trkpt>
      <trkpt lat="45.31057" lon="5.84069">
        <ele>1572.9</ele>
        <time>2012-02-14T11:16:54Z</time>
      </trkpt>
      <trkpt lat="45.31056" lon="5.84046">
        <ele>1576.2</ele>
        <time>2012-02-14T11:17:17Z</time>
      </trkpt>
      <trkpt lat="45.31056" lon="5.84033">
        <ele>1579.2</ele>
        <time>2012-02-14T11:17:30Z</time>
      </trkpt>
      <trkpt lat="45.31072" lon="5.84007">
        <ele>1591.4</ele>
        <time>2012-02-14T11:18:28Z</time>
      </trkpt>
      <trkpt lat="45.31069" lon="5.83995">
        <ele>1592.9</ele>
        <time>2012-02-14T11:18:42Z</time>
      </trkpt>
      <trkpt lat="45.31067" lon="5.83982">
        <ele>1595.5</ele>
        <time>2012-02-14T11:18:56Z</time>
      </trkpt>
      <trkpt lat="45.31066" lon="5.83982">
        <ele>1596</ele>
        <time>2012-02-14T11:18:57Z</time>
      </trkpt>
      <trkpt lat="45.31066" lon="5.8396">
        <ele>1604.1</ele>
        <time>2012-02-14T11:19:36Z</time>
      </trkpt>
      <trkpt lat="45.31062" lon="5.8395">
        <ele>1607</ele>
        <time>2012-02-14T11:19:52Z</time>
      </trkpt>
      <trkpt lat="45.31056" lon="5.8394">
        <ele>1608.9</ele>
        <time>2012-02-14T11:20:07Z</time>
      </trkpt>
      <trkpt lat="45.31056" lon="5.83939">
        <ele>1609.2</ele>
        <time>2012-02-14T11:20:08Z</time>
      </trkpt>
      <trkpt lat="45.31045" lon="5.83922">
        <ele>1613.8</ele>
        <time>2012-02-14T11:20:39Z</time>
      </trkpt>
      <trkpt lat="45.3104" lon="5.83911">
        <ele>1616.9</ele>
        <time>2012-02-14T11:20:55Z</time>
      </trkpt>
      <trkpt lat="45.31036" lon="5.839">
        <ele>1619.6</ele>
        <time>2012-02-14T11:21:13Z</time>
      </trkpt>
      <trkpt lat="45.31036" lon="5.83899">
        <ele>1619.7</ele>
        <time>2012-02-14T11:21:14Z</time>
      </trkpt>
      <trkpt lat="45.31028" lon="5.83878">
        <ele>1623.9</ele>
        <time>2012-02-14T11:21:43Z</time>
      </trkpt>
      <trkpt lat="45.31024" lon="5.83866">
        <ele>1627.4</ele>
        <time>2012-02-14T11:21:57Z</time>
      </trkpt>
      <trkpt lat="45.3102" lon="5.83855">
        <ele>1628.1</ele>
        <time>2012-02-14T11:22:09Z</time>
      </trkpt>
      <trkpt lat="45.31016" lon="5.83845">
        <ele>1630</ele>
        <time>2012-02-14T11:22:22Z</time>
      </trkpt>
      <trkpt lat="45.31016" lon="5.83844">
        <ele>1629.9</ele>
        <time>2012-02-14T11:22:23Z</time>
      </trkpt>
      <trkpt lat="45.31004" lon="5.83826">
        <ele>1634.7</ele>
        <time>2012-02-14T11:22:55Z</time>
      </trkpt>
      <trkpt lat="45.31" lon="5.83816">
        <ele>1637.6</ele>
        <time>2012-02-14T11:23:14Z</time>
      </trkpt>
      <trkpt lat="45.30996" lon="5.83805">
        <ele>1640.8</ele>
        <time>2012-02-14T11:23:32Z</time>
      </trkpt>
      <trkpt lat="45.30996" lon="5.83804">
        <ele>1641.1</ele>
        <time>2012-02-14T11:23:33Z</time>
      </trkpt>
      <trkpt lat="45.30988" lon="5.83783">
        <ele>1645.6</ele>
        <time>2012-02-14T11:24:09Z</time>
      </trkpt>
      <trkpt lat="45.30984" lon="5.83772">
        <ele>1649.4</ele>
        <time>2012-02-14T11:24:39Z</time>
      </trkpt>
      <trkpt lat="45.30984" lon="5.83771">
        <ele>1649.6</ele>
        <time>2012-02-14T11:24:40Z</time>
      </trkpt>
      <trkpt lat="45.30976" lon="5.8375">
        <ele>1655.3</ele>
        <time>2012-02-14T11:25:42Z</time>
      </trkpt>
      <trkpt lat="45.30975" lon="5.8375">
        <ele>1655.3</ele>
        <time>2012-02-14T11:25:43Z</time>
      </trkpt>
      <trkpt lat="45.3098" lon="5.83734">
        <ele>1664</ele>
        <time>2012-02-14T11:27:00Z</time>
      </trkpt>
      <trkpt lat="45.31003" lon="5.83717">
        <ele>1679</ele>
        <time>2012-02-14T11:28:32Z</time>
      </trkpt>
      <trkpt lat="45.30996" lon="5.83709">
        <ele>1681.1</ele>
        <time>2012-02-14T11:29:28Z</time>
      </trkpt>
      <trkpt lat="45.30996" lon="5.83708">
        <ele>1681.2</ele>
        <time>2012-02-14T11:29:29Z</time>
      </trkpt>
      <trkpt lat="45.3099" lon="5.83686">
        <ele>1686.1</ele>
        <time>2012-02-14T11:31:33Z</time>
      </trkpt>
      <trkpt lat="45.3099" lon="5.83685">
        <ele>1685.9</ele>
        <time>2012-02-14T11:31:34Z</time>
      </trkpt>
      <trkpt lat="45.30983" lon="5.83664">
        <ele>1690.6</ele>
        <time>2012-02-14T11:32:02Z</time>
      </trkpt>
      <trkpt lat="45.30978" lon="5.83652">
        <ele>1692.7</ele>
        <time>2012-02-14T11:32:18Z</time>
      </trkpt>
      <trkpt lat="45.30974" lon="5.83641">
        <ele>1697.3</ele>
        <time>2012-02-14T11:32:35Z</time>
      </trkpt>
      <trkpt lat="45.30974" lon="5.83641">
        <ele>1697.3</ele>
        <time>2012-02-14T11:32:36Z</time>
      </trkpt>
      <trkpt lat="45.30969" lon="5.83631">
        <ele>1698.9</ele>
        <time>2012-02-14T11:34:28Z</time>
      </trkpt>
      <trkpt lat="45.30959" lon="5.83611">
        <ele>1704.5</ele>
        <time>2012-02-14T11:35:01Z</time>
      </trkpt>
      <trkpt lat="45.30954" lon="5.836">
        <ele>1707.6</ele>
        <time>2012-02-14T11:35:19Z</time>
      </trkpt>
      <trkpt lat="45.30948" lon="5.83591">
        <ele>1710.2</ele>
        <time>2012-02-14T11:35:41Z</time>
      </trkpt>
      <trkpt lat="45.30948" lon="5.8359">
        <ele>1710.3</ele>
        <time>2012-02-14T11:35:42Z</time>
      </trkpt>
      <trkpt lat="45.30945" lon="5.83568">
        <ele>1719.2</ele>
        <time>2012-02-14T11:36:45Z</time>
      </trkpt>
      <trkpt lat="45.30945" lon="5.83568">
        <ele>1719.2</ele>
        <time>2012-02-14T11:36:45Z</time>
      </trkpt>
      <trkpt lat="45.30946" lon="5.83568">
        <ele>1719.4</ele>
        <time>2012-02-14T11:36:46Z</time>
      </trkpt>
      <trkpt lat="45.30962" lon="5.83561">
        <ele>1724.2</ele>
        <time>2012-02-14T11:37:42Z</time>
      </trkpt>
      <trkpt lat="45.3097" lon="5.83556">
        <ele>1725.3</ele>
        <time>2012-02-14T11:37:54Z</time>
      </trkpt>
      <trkpt lat="45.3097" lon="5.83555">
        <ele>1725.4</ele>
        <time>2012-02-14T11:37:55Z</time>
      </trkpt>
      <trkpt lat="45.30985" lon="5.83546">
        <ele>1731.3</ele>
        <time>2012-02-14T11:38:23Z</time>
      </trkpt>
      <trkpt lat="45.30994" lon="5.83542">
        <ele>1734.7</ele>
        <time>2012-02-14T11:38:39Z</time>
      </trkpt>
      <trkpt lat="45.31002" lon="5.83541">
        <ele>1739.5</ele>
        <time>2012-02-14T11:39:23Z</time>
      </trkpt>
      <trkpt lat="45.31003" lon="5.83541">
        <ele>1739.6</ele>
        <time>2012-02-14T11:39:24Z</time>
      </trkpt>
      <trkpt lat="45.31151" lon="5.83526">
        <ele>1755.4</ele>
        <time>2012-02-14T11:55:09Z</time>
      </trkpt>
      <trkpt lat="45.31152" lon="5.83513">
        <ele>1753.5</ele>
        <time>2012-02-14T11:55:15Z</time>
      </trkpt>
      <trkpt lat="45.31147" lon="5.83503">
        <ele>1750.2</ele>
        <time>2012-02-14T11:55:20Z</time>
      </trkpt>
      <trkpt lat="45.3114" lon="5.83495">
        <ele>1747.4</ele>
        <time>2012-02-14T11:55:26Z</time>
      </trkpt>
      <trkpt lat="45.31133" lon="5.83488">
        <ele>1744.5</ele>
        <time>2012-02-14T11:55:33Z</time>
      </trkpt>
      <trkpt lat="45.3113" lon="5.83477">
        <ele>1740.2</ele>
        <time>2012-02-14T11:55:40Z</time>
      </trkpt>
      <trkpt lat="45.31128" lon="5.83466">
        <ele>1736.7</ele>
        <time>2012-02-14T11:55:44Z</time>
      </trkpt>
      <trkpt lat="45.3112" lon="5.83462">
        <ele>1731.9</ele>
        <time>2012-02-14T11:55:51Z</time>
      </trkpt>
      <trkpt lat="45.31119" lon="5.83461">
        <ele>1731.4</ele>
        <time>2012-02-14T11:55:52Z</time>
      </trkpt>
      <trkpt lat="45.31114" lon="5.83446">
        <ele>1725</ele>
        <time>2012-02-14T11:56:09Z</time>
      </trkpt>
      <trkpt lat="45.31106" lon="5.83444">
        <ele>1721.9</ele>
        <time>2012-02-14T11:56:14Z</time>
      </trkpt>
      <trkpt lat="45.31098" lon="5.83446">
        <ele>1720.8</ele>
        <time>2012-02-14T11:56:19Z</time>
      </trkpt>
      <trkpt lat="45.31089" lon="5.83446">
        <ele>1717.4</ele>
        <time>2012-02-14T11:56:27Z</time>
      </trkpt>
      <trkpt lat="45.31193" lon="5.83374">
        <ele>1673.7</ele>
        <time>2012-02-14T11:58:10Z</time>
      </trkpt>
      <trkpt lat="45.31201" lon="5.83376">
        <ele>1671.6</ele>
        <time>2012-02-14T11:58:13Z</time>
      </trkpt>
      <trkpt lat="45.31209" lon="5.83378">
        <ele>1669.3</ele>
        <time>2012-02-14T11:58:16Z</time>
      </trkpt>
      <trkpt lat="45.31218" lon="5.83382">
        <ele>1667.1</ele>
        <time>2012-02-14T11:58:19Z</time>
      </trkpt>
      <trkpt lat="45.31225" lon="5.83386">
        <ele>1666.5</ele>
        <time>2012-02-14T11:58:22Z</time>
      </trkpt>
      <trkpt lat="45.31231" lon="5.83388">
        <ele>1665.4</ele>
        <time>2012-02-14T11:58:24Z</time>
      </trkpt>
      <trkpt lat="45.31237" lon="5.8339">
        <ele>1663.5</ele>
        <time>2012-02-14T11:58:26Z</time>
      </trkpt>
      <trkpt lat="45.31244" lon="5.83393">
        <ele>1661</ele>
        <time>2012-02-14T11:58:30Z</time>
      </trkpt>
      <trkpt lat="45.31252" lon="5.83395">
        <ele>1659.5</ele>
        <time>2012-02-14T11:58:33Z</time>
      </trkpt>
      <trkpt lat="45.3126" lon="5.834">
        <ele>1657.8</ele>
        <time>2012-02-14T11:58:36Z</time>
      </trkpt>
      <trkpt lat="45.31268" lon="5.83403">
        <ele>1654.7</ele>
        <time>2012-02-14T11:58:39Z</time>
      </trkpt>
      <trkpt lat="45.31276" lon="5.83406">
        <ele>1653.3</ele>
        <time>2012-02-14T11:58:41Z</time>
      </trkpt>
      <trkpt lat="45.3128" lon="5.83408">
        <ele>1652.7</ele>
        <time>2012-02-14T11:58:42Z</time>
      </trkpt>
      <trkpt lat="45.31288" lon="5.83411">
        <ele>1650.9</ele>
        <time>2012-02-14T11:58:44Z</time>
      </trkpt>
      <trkpt lat="45.31297" lon="5.83413">
        <ele>1648.8</ele>
        <time>2012-02-14T11:58:47Z</time>
      </trkpt>
      <trkpt lat="45.31305" lon="5.83415">
        <ele>1648.3</ele>
        <time>2012-02-14T11:58:52Z</time>
      </trkpt>
      <trkpt lat="45.31312" lon="5.83415">
        <ele>1647.1</ele>
        <time>2012-02-14T11:58:55Z</time>
      </trkpt>
      <trkpt lat="45.31315" lon="5.83415">
        <ele>1646.6</ele>
        <time>2012-02-14T11:58:56Z</time>
      </trkpt>
      <trkpt lat="45.31328" lon="5.83416">
        <ele>1643.3</ele>
        <time>2012-02-14T11:59:09Z</time>
      </trkpt>
      <trkpt lat="45.31336" lon="5.83414">
        <ele>1642.9</ele>
        <time>2012-02-14T11:59:13Z</time>
      </trkpt>
      <trkpt lat="45.31344" lon="5.83412">
        <ele>1640.5</ele>
        <time>2012-02-14T11:59:17Z</time>
      </trkpt>
      <trkpt lat="45.31399" lon="5.8339">
        <ele>1623.2</ele>
        <time>2012-02-14T11:59:53Z</time>
      </trkpt>
      <trkpt lat="45.31404" lon="5.83388">
        <ele>1622.4</ele>
        <time>2012-02-14T11:59:54Z</time>
      </trkpt>
      <trkpt lat="45.3141" lon="5.83386">
        <ele>1621.8</ele>
        <time>2012-02-14T11:59:55Z</time>
      </trkpt>
      <trkpt lat="45.31415" lon="5.83384">
        <ele>1620.4</ele>
        <time>2012-02-14T11:59:56Z</time>
      </trkpt>
      <trkpt lat="45.3142" lon="5.8338">
        <ele>1619.3</ele>
        <time>2012-02-14T11:59:57Z</time>
      </trkpt>
      <trkpt lat="45.31424" lon="5.83376">
        <ele>1618.5</ele>
        <time>2012-02-14T11:59:58Z</time>
      </trkpt>
      <trkpt lat="45.31428" lon="5.83372">
        <ele>1617.9</ele>
        <time>2012-02-14T11:59:59Z</time>
      </trkpt>
      <trkpt lat="45.31433" lon="5.83367">
        <ele>1616.5</ele>
        <time>2012-02-14T12:00:00Z</time>
      </trkpt>
      <trkpt lat="45.31438" lon="5.83362">
        <ele>1615.4</ele>
        <time>2012-02-14T12:00:01Z</time>
      </trkpt>
      <trkpt lat="45.31442" lon="5.83357">
        <ele>1614.6</ele>
        <time>2012-02-14T12:00:02Z</time>
      </trkpt>
      <trkpt lat="45.31447" lon="5.83352">
        <ele>1613.1</ele>
        <time>2012-02-14T12:00:03Z</time>
      </trkpt>
      <trkpt lat="45.31451" lon="5.83347">
        <ele>1612</ele>
        <time>2012-02-14T12:00:04Z</time>
      </trkpt>
      <trkpt lat="45.31455" lon="5.83343">
        <ele>1610.6</ele>
        <time>2012-02-14T12:00:05Z</time>
      </trkpt>
      <trkpt lat="45.31459" lon="5.83339">
        <ele>1609.6</ele>
        <time>2012-02-14T12:00:06Z</time>
      </trkpt>
      <trkpt lat="45.31463" lon="5.83334">
        <ele>1608.1</ele>
        <time>2012-02-14T12:00:07Z</time>
      </trkpt>
      <trkpt lat="45.31467" lon="5.83329">
        <ele>1607.1</ele>
        <time>2012-02-14T12:00:08Z</time>
      </trkpt>
      <trkpt lat="45.3147" lon="5.83324">
        <ele>1606.3</ele>
        <time>2012-02-14T12:00:09Z</time>
      </trkpt>
      <trkpt lat="45.31474" lon="5.8332">
        <ele>1605.2</ele>
        <time>2012-02-14T12:00:10Z</time>
      </trkpt>
      <trkpt lat="45.31478" lon="5.83315">
        <ele>1604.4</ele>
        <time>2012-02-14T12:00:11Z</time>
      </trkpt>
      <trkpt lat="45.31482" lon="5.83311">
        <ele>1603.5</ele>
        <time>2012-02-14T12:00:12Z</time>
      </trkpt>
      <trkpt lat="45.31489" lon="5.83302">
        <ele>1602.4</ele>
        <time>2012-02-14T12:00:14Z</time>
      </trkpt>
      <trkpt lat="45.31493" lon="5.83294">
        <ele>1601.8</ele>
        <time>2012-02-14T12:00:16Z</time>
      </trkpt>
      <trkpt lat="45.31497" lon="5.83286">
        <ele>1600.6</ele>
        <time>2012-02-14T12:00:18Z</time>
      </trkpt>
      <trkpt lat="45.31501" lon="5.83276">
        <ele>1601.2</ele>
        <time>2012-02-14T12:00:23Z</time>
      </trkpt>
      <trkpt lat="45.31503" lon="5.83264">
        <ele>1600.9</ele>
        <time>2012-02-14T12:00:42Z</time>
      </trkpt>
      <trkpt lat="45.31504" lon="5.83251">
        <ele>1602.1</ele>
        <time>2012-02-14T12:00:57Z</time>
      </trkpt>
      <trkpt lat="45.31504" lon="5.83251">
        <ele>1601.9</ele>
        <time>2012-02-14T12:00:58Z</time>
      </trkpt>
      <trkpt lat="45.31513" lon="5.83236">
        <ele>1604.6</ele>
        <time>2012-02-14T12:01:45Z</time>
      </trkpt>
      <trkpt lat="45.31522" lon="5.83236">
        <ele>1603.7</ele>
        <time>2012-02-14T12:13:28Z</time>
      </trkpt>
      <trkpt lat="45.31653" lon="5.83242">
        <ele>1604</ele>
        <time>2012-02-14T12:39:55Z</time>
      </trkpt>
      <trkpt lat="45.31661" lon="5.83241">
        <ele>1604</ele>
        <time>2012-02-14T12:40:05Z</time>
      </trkpt>
      <trkpt lat="45.3167" lon="5.83239">
        <ele>1604.4</ele>
        <time>2012-02-14T12:40:14Z</time>
      </trkpt>
      <trkpt lat="45.31678" lon="5.83237">
        <ele>1603.5</ele>
        <time>2012-02-14T12:40:19Z</time>
      </trkpt>
      <trkpt lat="45.31687" lon="5.83235">
        <ele>1601.6</ele>
        <time>2012-02-14T12:40:23Z</time>
      </trkpt>
      <trkpt lat="45.31693" lon="5.83233">
        <ele>1600.9</ele>
        <time>2012-02-14T12:40:25Z</time>
      </trkpt>
      <trkpt lat="45.31701" lon="5.83232">
        <ele>1600.3</ele>
        <time>2012-02-14T12:40:27Z</time>
      </trkpt>
      <trkpt lat="45.31706" lon="5.83231">
        <ele>1599.6</ele>
        <time>2012-02-14T12:40:28Z</time>
      </trkpt>
      <trkpt lat="45.31711" lon="5.8323">
        <ele>1599.1</ele>
        <time>2012-02-14T12:40:29Z</time>
      </trkpt>
      <trkpt lat="45.31717" lon="5.83229">
        <ele>1597.5</ele>
        <time>2012-02-14T12:40:30Z</time>
      </trkpt>
      <trkpt lat="45.31722" lon="5.83228">
        <ele>1596.3</ele>
        <time>2012-02-14T12:40:31Z</time>
      </trkpt>
      <trkpt lat="45.31727" lon="5.83226">
        <ele>1595.2</ele>
        <time>2012-02-14T12:40:32Z</time>
      </trkpt>
      <trkpt lat="45.31732" lon="5.83223">
        <ele>1594.3</ele>
        <time>2012-02-14T12:40:33Z</time>
      </trkpt>
      <trkpt lat="45.31738" lon="5.83221">
        <ele>1593.7</ele>
        <time>2012-02-14T12:40:34Z</time>
      </trkpt>
      <trkpt lat="45.31742" lon="5.83218">
        <ele>1592.7</ele>
        <time>2012-02-14T12:40:35Z</time>
      </trkpt>
      <trkpt lat="45.3175" lon="5.83215">
        <ele>1591.1</ele>
        <time>2012-02-14T12:40:37Z</time>
      </trkpt>
      <trkpt lat="45.31758" lon="5.83215">
        <ele>1590.1</ele>
        <time>2012-02-14T12:40:48Z</time>
      </trkpt>
      <trkpt lat="45.31767" lon="5.83216">
        <ele>1590.4</ele>
        <time>2012-02-14T12:41:00Z</time>
      </trkpt>
      <trkpt lat="45.31774" lon="5.83217">
        <ele>1590.5</ele>
        <time>2012-02-14T12:41:07Z</time>
      </trkpt>
      <trkpt lat="45.31783" lon="5.83218">
        <ele>1590.2</ele>
        <time>2012-02-14T12:41:15Z</time>
      </trkpt>
      <trkpt lat="45.31783" lon="5.83218">
        <ele>1590.2</ele>
        <time>2012-02-14T12:41:15Z</time>
      </trkpt>
      <trkpt lat="45.31792" lon="5.83218">
        <ele>1589.8</ele>
        <time>2012-02-14T12:41:25Z</time>
      </trkpt>
      <trkpt lat="45.318" lon="5.8322">
        <ele>1589.9</ele>
        <time>2012-02-14T12:41:36Z</time>
      </trkpt>
      <trkpt lat="45.31801" lon="5.8322">
        <ele>1590</ele>
        <time>2012-02-14T12:41:37Z</time>
      </trkpt>
      <trkpt lat="45.31815" lon="5.83224">
        <ele>1590.2</ele>
        <time>2012-02-14T12:41:45Z</time>
      </trkpt>
      <trkpt lat="45.31824" lon="5.83225">
        <ele>1589.3</ele>
        <time>2012-02-14T12:41:48Z</time>
      </trkpt>
      <trkpt lat="45.31832" lon="5.83225">
        <ele>1588.8</ele>
        <time>2012-02-14T12:41:54Z</time>
      </trkpt>
      <trkpt lat="45.31841" lon="5.83226">
        <ele>1587.4</ele>
        <time>2012-02-14T12:42:02Z</time>
      </trkpt>
      <trkpt lat="45.31849" lon="5.83228">
        <ele>1587.6</ele>
        <time>2012-02-14T12:42:13Z</time>
      </trkpt>
      <trkpt lat="45.31858" lon="5.8323">
        <ele>1588.4</ele>
        <time>2012-02-14T12:42:25Z</time>
      </trkpt>
      <trkpt lat="45.31866" lon="5.83234">
        <ele>1590.1</ele>
        <time>2012-02-14T12:42:40Z</time>
      </trkpt>
      <trkpt lat="45.31866" lon="5.83234">
        <ele>1590</ele>
        <time>2012-02-14T12:42:41Z</time>
      </trkpt>
      <trkpt lat="45.31881" lon="5.83242">
        <ele>1590.6</ele>
        <time>2012-02-14T12:43:24Z</time>
      </trkpt>
      <trkpt lat="45.3189" lon="5.83243">
        <ele>1591.4</ele>
        <time>2012-02-14T12:43:46Z</time>
      </trkpt>
      <trkpt lat="45.31891" lon="5.83242">
        <ele>1591.3</ele>
        <time>2012-02-14T12:43:47Z</time>
      </trkpt>
      <trkpt lat="45.31907" lon="5.8324">
        <ele>1595.3</ele>
        <time>2012-02-14T12:44:43Z</time>
      </trkpt>
      <trkpt lat="45.31916" lon="5.83239">
        <ele>1597.8</ele>
        <time>2012-02-14T12:45:26Z</time>
      </trkpt>
      <trkpt lat="45.32005" lon="5.83249">
        <ele>1607.1</ele>
        <time>2012-02-14T12:51:14Z</time>
      </trkpt>
      <trkpt lat="45.32017" lon="5.8323">
        <ele>1603.9</ele>
        <time>2012-02-14T12:51:51Z</time>
      </trkpt>
      <trkpt lat="45.3202" lon="5.8322">
        <ele>1603.3</ele>
        <time>2012-02-14T12:52:00Z</time>
      </trkpt>
      <trkpt lat="45.32026" lon="5.83215">
        <ele>1599.7</ele>
        <time>2012-02-14T12:52:04Z</time>
      </trkpt>
      <trkpt lat="45.32033" lon="5.83211">
        <ele>1598.1</ele>
        <time>2012-02-14T12:52:07Z</time>
      </trkpt>
      <trkpt lat="45.3204" lon="5.83207">
        <ele>1595.5</ele>
        <time>2012-02-14T12:52:10Z</time>
      </trkpt>
      <trkpt lat="45.32047" lon="5.83204">
        <ele>1593.6</ele>
        <time>2012-02-14T12:52:13Z</time>
      </trkpt>
      <trkpt lat="45.32053" lon="5.832">
        <ele>1592</ele>
        <time>2012-02-14T12:52:16Z</time>
      </trkpt>
      <trkpt lat="45.32055" lon="5.83197">
        <ele>1590.9</ele>
        <time>2012-02-14T12:52:17Z</time>
      </trkpt>
      <trkpt lat="45.32059" lon="5.83182">
        <ele>1588.5</ele>
        <time>2012-02-14T12:52:20Z</time>
      </trkpt>
      <trkpt lat="45.32062" lon="5.83173">
        <ele>1587</ele>
        <time>2012-02-14T12:52:22Z</time>
      </trkpt>
      <trkpt lat="45.32066" lon="5.83163">
        <ele>1585</ele>
        <time>2012-02-14T12:52:25Z</time>
      </trkpt>
      <trkpt lat="45.32071" lon="5.83154">
        <ele>1583.9</ele>
        <time>2012-02-14T12:52:29Z</time>
      </trkpt>
      <trkpt lat="45.32076" lon="5.83146">
        <ele>1582.7</ele>
        <time>2012-02-14T12:52:32Z</time>
      </trkpt>
      <trkpt lat="45.32084" lon="5.83141">
        <ele>1579.1</ele>
        <time>2012-02-14T12:52:46Z</time>
      </trkpt>
      <trkpt lat="45.32092" lon="5.83141">
        <ele>1578</ele>
        <time>2012-02-14T12:52:51Z</time>
      </trkpt>
      <trkpt lat="45.32145" lon="5.83129">
        <ele>1565.9</ele>
        <time>2012-02-14T12:53:33Z</time>
      </trkpt>
      <trkpt lat="45.32151" lon="5.83122">
        <ele>1561.6</ele>
        <time>2012-02-14T12:53:48Z</time>
      </trkpt>
      <trkpt lat="45.32157" lon="5.83113">
        <ele>1558.7</ele>
        <time>2012-02-14T12:53:57Z</time>
      </trkpt>
      <trkpt lat="45.32166" lon="5.83112">
        <ele>1556.4</ele>
        <time>2012-02-14T12:54:03Z</time>
      </trkpt>
      <trkpt lat="45.3217" lon="5.83104">
        <ele>1552.8</ele>
        <time>2012-02-14T12:54:09Z</time>
      </trkpt>
      <trkpt lat="45.32176" lon="5.83099">
        <ele>1551.6</ele>
        <time>2012-02-14T12:54:12Z</time>
      </trkpt>
      <trkpt lat="45.32183" lon="5.8309">
        <ele>1545.7</ele>
        <time>2012-02-14T12:54:26Z</time>
      </trkpt>
      <trkpt lat="45.32183" lon="5.8309">
        <ele>1545.4</ele>
        <time>2012-02-14T12:54:27Z</time>
      </trkpt>
      <trkpt lat="45.3219" lon="5.83075">
        <ele>1542.7</ele>
        <time>2012-02-14T12:54:33Z</time>
      </trkpt>
      <trkpt lat="45.32192" lon="5.83069">
        <ele>1542.2</ele>
        <time>2012-02-14T12:54:34Z</time>
      </trkpt>
      <trkpt lat="45.32196" lon="5.83057">
        <ele>1540.3</ele>
        <time>2012-02-14T12:54:36Z</time>
      </trkpt>
      <trkpt lat="45.32199" lon="5.83049">
        <ele>1539</ele>
        <time>2012-02-14T12:54:38Z</time>
      </trkpt>
      <trkpt lat="45.32205" lon="5.83039">
        <ele>1536.6</ele>
        <time>2012-02-14T12:54:42Z</time>
      </trkpt>
      <trkpt lat="45.32209" lon="5.83032">
        <ele>1534.9</ele>
        <time>2012-02-14T12:54:45Z</time>
      </trkpt>
      <trkpt lat="45.32215" lon="5.83024">
        <ele>1533.9</ele>
        <time>2012-02-14T12:54:48Z</time>
      </trkpt>
      <trkpt lat="45.32221" lon="5.83017">
        <ele>1532.8</ele>
        <time>2012-02-14T12:54:50Z</time>
      </trkpt>
      <trkpt lat="45.32227" lon="5.8301">
        <ele>1531.6</ele>
        <time>2012-02-14T12:54:54Z</time>
      </trkpt>
      <trkpt lat="45.32233" lon="5.83004">
        <ele>1531.3</ele>
        <time>2012-02-14T12:54:58Z</time>
      </trkpt>
      <trkpt lat="45.32241" lon="5.82999">
        <ele>1529.5</ele>
        <time>2012-02-14T12:55:01Z</time>
      </trkpt>
      <trkpt lat="45.32249" lon="5.82997">
        <ele>1528.3</ele>
        <time>2012-02-14T12:55:04Z</time>
      </trkpt>
      <trkpt lat="45.32256" lon="5.82994">
        <ele>1527.4</ele>
        <time>2012-02-14T12:55:08Z</time>
      </trkpt>
      <trkpt lat="45.32263" lon="5.8299">
        <ele>1526.5</ele>
        <time>2012-02-14T12:55:11Z</time>
      </trkpt>
      <trkpt lat="45.32267" lon="5.82984">
        <ele>1525.2</ele>
        <time>2012-02-14T12:55:13Z</time>
      </trkpt>
      <trkpt lat="45.32272" lon="5.82978">
        <ele>1523.1</ele>
        <time>2012-02-14T12:55:15Z</time>
      </trkpt>
      <trkpt lat="45.32278" lon="5.82974">
        <ele>1521.3</ele>
        <time>2012-02-14T12:55:17Z</time>
      </trkpt>
      <trkpt lat="45.32285" lon="5.82974">
        <ele>1520.8</ele>
        <time>2012-02-14T12:55:19Z</time>
      </trkpt>
      <trkpt lat="45.32293" lon="5.82973">
        <ele>1519.3</ele>
        <time>2012-02-14T12:55:25Z</time>
      </trkpt>
      <trkpt lat="45.32303" lon="5.8293">
        <ele>1509.4</ele>
        <time>2012-02-14T12:56:28Z</time>
      </trkpt>
      <trkpt lat="45.32309" lon="5.82922">
        <ele>1507.6</ele>
        <time>2012-02-14T12:56:35Z</time>
      </trkpt>
      <trkpt lat="45.32312" lon="5.8291">
        <ele>1505.7</ele>
        <time>2012-02-14T12:56:40Z</time>
      </trkpt>
      <trkpt lat="45.32314" lon="5.82908">
        <ele>1504.6</ele>
        <time>2012-02-14T12:56:41Z</time>
      </trkpt>
      <trkpt lat="45.32321" lon="5.82894">
        <ele>1501</ele>
        <time>2012-02-14T12:56:52Z</time>
      </trkpt>
      <trkpt lat="45.32319" lon="5.82883">
        <ele>1496.9</ele>
        <time>2012-02-14T12:57:00Z</time>
      </trkpt>
      <trkpt lat="45.32323" lon="5.82872">
        <ele>1494.7</ele>
        <time>2012-02-14T12:57:05Z</time>
      </trkpt>
      <trkpt lat="45.3233" lon="5.82868">
        <ele>1492.6</ele>
        <time>2012-02-14T12:57:08Z</time>
      </trkpt>
      <trkpt lat="45.32336" lon="5.82859">
        <ele>1488.8</ele>
        <time>2012-02-14T12:57:13Z</time>
      </trkpt>
      <trkpt lat="45.32338" lon="5.82849">
        <ele>1487.6</ele>
        <time>2012-02-14T12:57:17Z</time>
      </trkpt>
      <trkpt lat="45.32341" lon="5.8284">
        <ele>1486.1</ele>
        <time>2012-02-14T12:57:19Z</time>
      </trkpt>
      <trkpt lat="45.32347" lon="5.82831">
        <ele>1483.6</ele>
        <time>2012-02-14T12:57:21Z</time>
      </trkpt>
      <trkpt lat="45.32352" lon="5.82828">
        <ele>1482.4</ele>
        <time>2012-02-14T12:57:22Z</time>
      </trkpt>
      <trkpt lat="45.32357" lon="5.82826">
        <ele>1481.5</ele>
        <time>2012-02-14T12:57:23Z</time>
      </trkpt>
      <trkpt lat="45.32365" lon="5.82822">
        <ele>1479.3</ele>
        <time>2012-02-14T12:57:25Z</time>
      </trkpt>
      <trkpt lat="45.32371" lon="5.82818">
        <ele>1477.6</ele>
        <time>2012-02-14T12:57:27Z</time>
      </trkpt>
      <trkpt lat="45.32378" lon="5.82811">
        <ele>1476.7</ele>
        <time>2012-02-14T12:57:29Z</time>
      </trkpt>
      <trkpt lat="45.32382" lon="5.82803">
        <ele>1475.7</ele>
        <time>2012-02-14T12:57:31Z</time>
      </trkpt>
      <trkpt lat="45.32386" lon="5.82791">
        <ele>1473.1</ele>
        <time>2012-02-14T12:57:39Z</time>
      </trkpt>
      <trkpt lat="45.32394" lon="5.82786">
        <ele>1471.8</ele>
        <time>2012-02-14T12:57:50Z</time>
      </trkpt>
      <trkpt lat="45.32395" lon="5.82785">
        <ele>1471.6</ele>
        <time>2012-02-14T12:57:51Z</time>
      </trkpt>
      <trkpt lat="45.32401" lon="5.82766">
        <ele>1468.4</ele>
        <time>2012-02-14T12:58:00Z</time>
      </trkpt>
      <trkpt lat="45.32399" lon="5.82755">
        <ele>1466.6</ele>
        <time>2012-02-14T12:58:03Z</time>
      </trkpt>
      <trkpt lat="45.32401" lon="5.82745">
        <ele>1464.5</ele>
        <time>2012-02-14T12:58:07Z</time>
      </trkpt>
      <trkpt lat="45.32403" lon="5.82736">
        <ele>1462.4</ele>
        <time>2012-02-14T12:58:11Z</time>
      </trkpt>
      <trkpt lat="45.32404" lon="5.82726">
        <ele>1460.9</ele>
        <time>2012-02-14T12:58:14Z</time>
      </trkpt>
      <trkpt lat="45.32407" lon="5.82717">
        <ele>1458.5</ele>
        <time>2012-02-14T12:58:17Z</time>
      </trkpt>
      <trkpt lat="45.32412" lon="5.82711">
        <ele>1457.4</ele>
        <time>2012-02-14T12:58:19Z</time>
      </trkpt>
      <trkpt lat="45.32418" lon="5.82704">
        <ele>1454.3</ele>
        <time>2012-02-14T12:58:23Z</time>
      </trkpt>
      <trkpt lat="45.32422" lon="5.82693">
        <ele>1448.8</ele>
        <time>2012-02-14T12:58:31Z</time>
      </trkpt>
      <trkpt lat="45.32429" lon="5.82693">
        <ele>1447.2</ele>
        <time>2012-02-14T12:58:35Z</time>
      </trkpt>
      <trkpt lat="45.32436" lon="5.82686">
        <ele>1443.8</ele>
        <time>2012-02-14T12:58:47Z</time>
      </trkpt>
      <trkpt lat="45.32441" lon="5.82676">
        <ele>1440.2</ele>
        <time>2012-02-14T12:59:03Z</time>
      </trkpt>
      <trkpt lat="45.32441" lon="5.82676">
        <ele>1440.1</ele>
        <time>2012-02-14T12:59:04Z</time>
      </trkpt>
      <trkpt lat="45.32449" lon="5.82671">
        <ele>1440.7</ele>
        <time>2012-02-14T13:00:16Z</time>
      </trkpt>
      <trkpt lat="45.32455" lon="5.82653">
        <ele>1437.8</ele>
        <time>2012-02-14T13:01:17Z</time>
      </trkpt>
      <trkpt lat="45.32455" lon="5.82649">
        <ele>1437.6</ele>
        <time>2012-02-14T13:01:18Z</time>
      </trkpt>
      <trkpt lat="45.32429" lon="5.8254">
        <ele>1410.8</ele>
        <time>2012-02-14T13:02:15Z</time>
      </trkpt>
      <trkpt lat="45.32437" lon="5.82537">
        <ele>1409</ele>
        <time>2012-02-14T13:02:21Z</time>
      </trkpt>
      <trkpt lat="45.32437" lon="5.82536">
        <ele>1408.9</ele>
        <time>2012-02-14T13:02:22Z</time>
      </trkpt>
      <trkpt lat="45.32438" lon="5.82517">
        <ele>1405.7</ele>
        <time>2012-02-14T13:02:26Z</time>
      </trkpt>
      <trkpt lat="45.3244" lon="5.82505">
        <ele>1403.4</ele>
        <time>2012-02-14T13:02:32Z</time>
      </trkpt>
      <trkpt lat="45.32444" lon="5.82494">
        <ele>1402.1</ele>
        <time>2012-02-14T13:02:44Z</time>
      </trkpt>
      <trkpt lat="45.32449" lon="5.82486">
        <ele>1400</ele>
        <time>2012-02-14T13:02:50Z</time>
      </trkpt>
      <trkpt lat="45.32455" lon="5.82478">
        <ele>1396.6</ele>
        <time>2012-02-14T13:02:55Z</time>
      </trkpt>
      <trkpt lat="45.32463" lon="5.8247">
        <ele>1393.9</ele>
        <time>2012-02-14T13:03:00Z</time>
      </trkpt>
      <trkpt lat="45.32469" lon="5.82464">
        <ele>1391.6</ele>
        <time>2012-02-14T13:03:05Z</time>
      </trkpt>
      <trkpt lat="45.32473" lon="5.82458">
        <ele>1390.7</ele>
        <time>2012-02-14T13:03:07Z</time>
      </trkpt>
      <trkpt lat="45.32482" lon="5.82456">
        <ele>1388.3</ele>
        <time>2012-02-14T13:03:10Z</time>
      </trkpt>
      <trkpt lat="45.32489" lon="5.82452">
        <ele>1387.6</ele>
        <time>2012-02-14T13:03:30Z</time>
      </trkpt>
      <trkpt lat="45.3249" lon="5.8245">
        <ele>1387.5</ele>
        <time>2012-02-14T13:03:31Z</time>
      </trkpt>
      <trkpt lat="45.32498" lon="5.82434">
        <ele>1379.8</ele>
        <time>2012-02-14T13:03:47Z</time>
      </trkpt>
      <trkpt lat="45.32504" lon="5.82429">
        <ele>1378.7</ele>
        <time>2012-02-14T13:03:51Z</time>
      </trkpt>
      <trkpt lat="45.32511" lon="5.82429">
        <ele>1377.1</ele>
        <time>2012-02-14T13:03:54Z</time>
      </trkpt>
      <trkpt lat="45.3252" lon="5.82428">
        <ele>1375</ele>
        <time>2012-02-14T13:03:57Z</time>
      </trkpt>
      <trkpt lat="45.32527" lon="5.82422">
        <ele>1373.5</ele>
        <time>2012-02-14T13:03:59Z</time>
      </trkpt>
      <trkpt lat="45.32532" lon="5.82419">
        <ele>1372.3</ele>
        <time>2012-02-14T13:04:00Z</time>
      </trkpt>
      <trkpt lat="45.32539" lon="5.82414">
        <ele>1370.6</ele>
        <time>2012-02-14T13:04:02Z</time>
      </trkpt>
      <trkpt lat="45.32544" lon="5.82406">
        <ele>1369.7</ele>
        <time>2012-02-14T13:04:04Z</time>
      </trkpt>
      <trkpt lat="45.32553" lon="5.82403">
        <ele>1367.1</ele>
        <time>2012-02-14T13:04:12Z</time>
      </trkpt>
      <trkpt lat="45.32561" lon="5.82396">
        <ele>1366.8</ele>
        <time>2012-02-14T13:05:43Z</time>
      </trkpt>
      <trkpt lat="45.32561" lon="5.82396">
        <ele>1366.9</ele>
        <time>2012-02-14T13:05:44Z</time>
      </trkpt>
      <trkpt lat="45.32582" lon="5.82418">
        <ele>1368</ele>
        <time>2012-02-14T13:07:12Z</time>
      </trkpt>
      <trkpt lat="45.32595" lon="5.82433">
        <ele>1367.8</ele>
        <time>2012-02-14T13:08:17Z</time>
      </trkpt>
      <trkpt lat="45.32596" lon="5.82434">
        <ele>1367.7</ele>
        <time>2012-02-14T13:08:18Z</time>
      </trkpt>
      <trkpt lat="45.3261" lon="5.82447">
        <ele>1368.9</ele>
        <time>2012-02-14T13:08:39Z</time>
      </trkpt>
      <trkpt lat="45.32618" lon="5.8245">
        <ele>1369.3</ele>
        <time>2012-02-14T13:08:50Z</time>
      </trkpt>
      <trkpt lat="45.32626" lon="5.82451">
        <ele>1370.8</ele>
        <time>2012-02-14T13:09:01Z</time>
      </trkpt>
      <trkpt lat="45.32634" lon="5.82452">
        <ele>1371.6</ele>
        <time>2012-02-14T13:09:10Z</time>
      </trkpt>
      <trkpt lat="45.32643" lon="5.82452">
        <ele>1371.6</ele>
        <time>2012-02-14T13:09:19Z</time>
      </trkpt>
      <trkpt lat="45.32643" lon="5.82452">
        <ele>1371.4</ele>
        <time>2012-02-14T13:09:20Z</time>
      </trkpt>
      <trkpt lat="45.32659" lon="5.82453">
        <ele>1372.3</ele>
        <time>2012-02-14T13:09:35Z</time>
      </trkpt>
      <trkpt lat="45.32668" lon="5.82454">
        <ele>1373</ele>
        <time>2012-02-14T13:09:47Z</time>
      </trkpt>
      <trkpt lat="45.32676" lon="5.82454">
        <ele>1373.4</ele>
        <time>2012-02-14T13:09:58Z</time>
      </trkpt>
      <trkpt lat="45.32684" lon="5.82455">
        <ele>1373.2</ele>
        <time>2012-02-14T13:10:07Z</time>
      </trkpt>
      <trkpt lat="45.32692" lon="5.8246">
        <ele>1373.7</ele>
        <time>2012-02-14T13:10:16Z</time>
      </trkpt>
      <trkpt lat="45.327" lon="5.82465">
        <ele>1374.2</ele>
        <time>2012-02-14T13:10:26Z</time>
      </trkpt>
      <trkpt lat="45.32701" lon="5.82465">
        <ele>1373.9</ele>
        <time>2012-02-14T13:10:27Z</time>
      </trkpt>
      <trkpt lat="45.32715" lon="5.82476">
        <ele>1374.8</ele>
        <time>2012-02-14T13:10:51Z</time>
      </trkpt>
      <trkpt lat="45.32723" lon="5.82483">
        <ele>1375.5</ele>
        <time>2012-02-14T13:11:05Z</time>
      </trkpt>
      <trkpt lat="45.32731" lon="5.82488">
        <ele>1376.4</ele>
        <time>2012-02-14T13:11:16Z</time>
      </trkpt>
      <trkpt lat="45.32739" lon="5.82491">
        <ele>1376.1</ele>
        <time>2012-02-14T13:11:26Z</time>
      </trkpt>
      <trkpt lat="45.32748" lon="5.82492">
        <ele>1375.9</ele>
        <time>2012-02-14T13:11:36Z</time>
      </trkpt>
      <trkpt lat="45.32749" lon="5.82493">
        <ele>1376</ele>
        <time>2012-02-14T13:11:37Z</time>
      </trkpt>
      <trkpt lat="45.32765" lon="5.82495">
        <ele>1377.7</ele>
        <time>2012-02-14T13:11:55Z</time>
      </trkpt>
      <trkpt lat="45.32773" lon="5.82497">
        <ele>1377</ele>
        <time>2012-02-14T13:12:03Z</time>
      </trkpt>
      <trkpt lat="45.32781" lon="5.82501">
        <ele>1377.2</ele>
        <time>2012-02-14T13:12:12Z</time>
      </trkpt>
      <trkpt lat="45.32789" lon="5.82505">
        <ele>1377</ele>
        <time>2012-02-14T13:12:22Z</time>
      </trkpt>
      <trkpt lat="45.32795" lon="5.82514">
        <ele>1376.5</ele>
        <time>2012-02-14T13:12:42Z</time>
      </trkpt>
      <trkpt lat="45.32795" lon="5.82515">
        <ele>1376.5</ele>
        <time>2012-02-14T13:12:43Z</time>
      </trkpt>
      <trkpt lat="45.32795" lon="5.82515">
        <ele>1376.5</ele>
        <time>2012-02-14T13:12:43Z</time>
      </trkpt>
      <trkpt lat="45.32798" lon="5.82538">
        <ele>1377.7</ele>
        <time>2012-02-14T13:13:19Z</time>
      </trkpt>
      <trkpt lat="45.32797" lon="5.8255">
        <ele>1378.2</ele>
        <time>2012-02-14T13:13:39Z</time>
      </trkpt>
      <trkpt lat="45.32792" lon="5.82559">
        <ele>1377.9</ele>
        <time>2012-02-14T13:14:00Z</time>
      </trkpt>
      <trkpt lat="45.32792" lon="5.82561">
        <ele>1377.9</ele>
        <time>2012-02-14T13:14:01Z</time>
      </trkpt>
      <trkpt lat="45.32788" lon="5.82583">
        <ele>1376.1</ele>
        <time>2012-02-14T13:14:18Z</time>
      </trkpt>
      <trkpt lat="45.32788" lon="5.82595">
        <ele>1375.5</ele>
        <time>2012-02-14T13:14:25Z</time>
      </trkpt>
      <trkpt lat="45.32788" lon="5.82607">
        <ele>1375.4</ele>
        <time>2012-02-14T13:14:33Z</time>
      </trkpt>
      <trkpt lat="45.32787" lon="5.82619">
        <ele>1376.5</ele>
        <time>2012-02-14T13:14:42Z</time>
      </trkpt>
      <trkpt lat="45.32784" lon="5.82631">
        <ele>1375.9</ele>
        <time>2012-02-14T13:14:54Z</time>
      </trkpt>
      <trkpt lat="45.3278" lon="5.82642">
        <ele>1376.5</ele>
        <time>2012-02-14T13:15:07Z</time>
      </trkpt>
      <trkpt lat="45.3278" lon="5.82642">
        <ele>1376.6</ele>
        <time>2012-02-14T13:15:08Z</time>
      </trkpt>
      <trkpt lat="45.3277" lon="5.82662">
        <ele>1378.2</ele>
        <time>2012-02-14T13:15:37Z</time>
      </trkpt>
      <trkpt lat="45.32763" lon="5.82669">
        <ele>1379.6</ele>
        <time>2012-02-14T13:15:51Z</time>
      </trkpt>
      <trkpt lat="45.32755" lon="5.82674">
        <ele>1380.1</ele>
        <time>2012-02-14T13:16:03Z</time>
      </trkpt>
      <trkpt lat="45.32747" lon="5.82678">
        <ele>1380.5</ele>
        <time>2012-02-14T13:16:14Z</time>
      </trkpt>
      <trkpt lat="45.32678" lon="5.82705">
        <ele>1386</ele>
        <time>2012-02-14T13:24:03Z</time>
      </trkpt>
      <trkpt lat="45.32675" lon="5.82716">
        <ele>1387.1</ele>
        <time>2012-02-14T13:24:16Z</time>
      </trkpt>
      <trkpt lat="45.32674" lon="5.82717">
        <ele>1387.2</ele>
        <time>2012-02-14T13:24:17Z</time>
      </trkpt>
      <trkpt lat="45.3267" lon="5.8274">
        <ele>1391.8</ele>
        <time>2012-02-14T13:24:39Z</time>
      </trkpt>
      <trkpt lat="45.32673" lon="5.82751">
        <ele>1391.5</ele>
        <time>2012-02-14T13:24:47Z</time>
      </trkpt>
      <trkpt lat="45.32678" lon="5.82761">
        <ele>1392.2</ele>
        <time>2012-02-14T13:24:54Z</time>
      </trkpt>
      <trkpt lat="45.32684" lon="5.82768">
        <ele>1393.4</ele>
        <time>2012-02-14T13:25:00Z</time>
      </trkpt>
      <trkpt lat="45.3269" lon="5.82776">
        <ele>1393.6</ele>
        <time>2012-02-14T13:25:05Z</time>
      </trkpt>
      <trkpt lat="45.32694" lon="5.82786">
        <ele>1394</ele>
        <time>2012-02-14T13:25:12Z</time>
      </trkpt>
      <trkpt lat="45.32697" lon="5.82798">
        <ele>1395</ele>
        <time>2012-02-14T13:25:21Z</time>
      </trkpt>
      <trkpt lat="45.32697" lon="5.82799">
        <ele>1395</ele>
        <time>2012-02-14T13:25:22Z</time>
      </trkpt>
      <trkpt lat="45.32697" lon="5.82822">
        <ele>1396.8</ele>
        <time>2012-02-14T13:25:40Z</time>
      </trkpt>
      <trkpt lat="45.32696" lon="5.82834">
        <ele>1398.2</ele>
        <time>2012-02-14T13:25:49Z</time>
      </trkpt>
      <trkpt lat="45.32696" lon="5.82846">
        <ele>1399.9</ele>
        <time>2012-02-14T13:25:58Z</time>
      </trkpt>
      <trkpt lat="45.32695" lon="5.82857">
        <ele>1400.9</ele>
        <time>2012-02-14T13:26:06Z</time>
      </trkpt>
      <trkpt lat="45.32693" lon="5.8287">
        <ele>1402.2</ele>
        <time>2012-02-14T13:26:14Z</time>
      </trkpt>
      <trkpt lat="45.3269" lon="5.82882">
        <ele>1402.2</ele>
        <time>2012-02-14T13:26:23Z</time>
      </trkpt>
      <trkpt lat="45.3269" lon="5.82883">
        <ele>1402.6</ele>
        <time>2012-02-14T13:26:24Z</time>
      </trkpt>
      <trkpt lat="45.3269" lon="5.82883">
        <ele>1402.6</ele>
        <time>2012-02-14T13:26:24Z</time>
      </trkpt>
      <trkpt lat="45.32677" lon="5.82894">
        <ele>1403.2</ele>
        <time>2012-02-14T13:26:44Z</time>
      </trkpt>
      <trkpt lat="45.32669" lon="5.82894">
        <ele>1404.3</ele>
        <time>2012-02-14T13:26:53Z</time>
      </trkpt>
      <trkpt lat="45.3266" lon="5.82895">
        <ele>1405.8</ele>
        <time>2012-02-14T13:27:02Z</time>
      </trkpt>
      <trkpt lat="45.32651" lon="5.82898">
        <ele>1406.6</ele>
        <time>2012-02-14T13:27:14Z</time>
      </trkpt>
      <trkpt lat="45.32643" lon="5.82901">
        <ele>1408.3</ele>
        <time>2012-02-14T13:27:23Z</time>
      </trkpt>
      <trkpt lat="45.32634" lon="5.82903">
        <ele>1410.2</ele>
        <time>2012-02-14T13:27:33Z</time>
      </trkpt>
      <trkpt lat="45.32633" lon="5.82903">
        <ele>1410.2</ele>
        <time>2012-02-14T13:27:34Z</time>
      </trkpt>
      <trkpt lat="45.32618" lon="5.82911">
        <ele>1411.2</ele>
        <time>2012-02-14T13:27:51Z</time>
      </trkpt>
      <trkpt lat="45.3261" lon="5.82913">
        <ele>1411.8</ele>
        <time>2012-02-14T13:28:07Z</time>
      </trkpt>
      <trkpt lat="45.32601" lon="5.82916">
        <ele>1411.8</ele>
        <time>2012-02-14T13:28:16Z</time>
      </trkpt>
      <trkpt lat="45.32593" lon="5.8292">
        <ele>1426.2</ele>
        <time>2012-02-14T13:28:25Z</time>
      </trkpt>
      <trkpt lat="45.32585" lon="5.82926">
        <ele>1434.5</ele>
        <time>2012-02-14T13:28:33Z</time>
      </trkpt>
      <trkpt lat="45.32577" lon="5.8293">
        <ele>1435.2</ele>
        <time>2012-02-14T13:28:41Z</time>
      </trkpt>
      <trkpt lat="45.32576" lon="5.82931">
        <ele>1435.3</ele>
        <time>2012-02-14T13:28:42Z</time>
      </trkpt>
      <trkpt lat="45.32562" lon="5.8294">
        <ele>1436.4</ele>
        <time>2012-02-14T13:28:57Z</time>
      </trkpt>
      <trkpt lat="45.32554" lon="5.82946">
        <ele>1437.4</ele>
        <time>2012-02-14T13:29:06Z</time>
      </trkpt>
      <trkpt lat="45.32546" lon="5.82953">
        <ele>1436.3</ele>
        <time>2012-02-14T13:29:15Z</time>
      </trkpt>
      <trkpt lat="45.32541" lon="5.82964">
        <ele>1436.7</ele>
        <time>2012-02-14T13:29:26Z</time>
      </trkpt>
      <trkpt lat="45.32534" lon="5.82971">
        <ele>1435.6</ele>
        <time>2012-02-14T13:29:37Z</time>
      </trkpt>
      <trkpt lat="45.32527" lon="5.82978">
        <ele>1436.1</ele>
        <time>2012-02-14T13:29:52Z</time>
      </trkpt>
      <trkpt lat="45.32527" lon="5.82979">
        <ele>1436.4</ele>
        <time>2012-02-14T13:29:53Z</time>
      </trkpt>
      <trkpt lat="45.32512" lon="5.82991">
        <ele>1440.8</ele>
        <time>2012-02-14T13:30:26Z</time>
      </trkpt>
      <trkpt lat="45.32504" lon="5.82996">
        <ele>1442.2</ele>
        <time>2012-02-14T13:30:43Z</time>
      </trkpt>
      <trkpt lat="45.32497" lon="5.83003">
        <ele>1443.7</ele>
        <time>2012-02-14T13:31:01Z</time>
      </trkpt>
      <trkpt lat="45.32496" lon="5.83004">
        <ele>1443.9</ele>
        <time>2012-02-14T13:31:02Z</time>
      </trkpt>
      <trkpt lat="45.32482" lon="5.83017">
        <ele>1446.2</ele>
        <time>2012-02-14T13:31:31Z</time>
      </trkpt>
      <trkpt lat="45.32476" lon="5.83025">
        <ele>1448.5</ele>
        <time>2012-02-14T13:31:46Z</time>
      </trkpt>
      <trkpt lat="45.32468" lon="5.83031">
        <ele>1450.2</ele>
        <time>2012-02-14T13:32:03Z</time>
      </trkpt>
      <trkpt lat="45.32468" lon="5.83031">
        <ele>1450.4</ele>
        <time>2012-02-14T13:32:04Z</time>
      </trkpt>
      <trkpt lat="45.32453" lon="5.83043">
        <ele>1454.7</ele>
        <time>2012-02-14T13:32:41Z</time>
      </trkpt>
      <trkpt lat="45.32446" lon="5.83051">
        <ele>1456.1</ele>
        <time>2012-02-14T13:32:57Z</time>
      </trkpt>
      <trkpt lat="45.32439" lon="5.83058">
        <ele>1457.9</ele>
        <time>2012-02-14T13:33:14Z</time>
      </trkpt>
      <trkpt lat="45.32438" lon="5.83058">
        <ele>1458</ele>
        <time>2012-02-14T13:33:15Z</time>
      </trkpt>
      <trkpt lat="45.32425" lon="5.83073">
        <ele>1462.5</ele>
        <time>2012-02-14T13:33:48Z</time>
      </trkpt>
      <trkpt lat="45.32418" lon="5.83078">
        <ele>1464.1</ele>
        <time>2012-02-14T13:34:02Z</time>
      </trkpt>
      <trkpt lat="45.3241" lon="5.83083">
        <ele>1465</ele>
        <time>2012-02-14T13:34:15Z</time>
      </trkpt>
      <trkpt lat="45.32409" lon="5.83083">
        <ele>1464.9</ele>
        <time>2012-02-14T13:34:16Z</time>
      </trkpt>
      <trkpt lat="45.32394" lon="5.83092">
        <ele>1468.6</ele>
        <time>2012-02-14T13:34:49Z</time>
      </trkpt>
      <trkpt lat="45.32386" lon="5.83098">
        <ele>1470.7</ele>
        <time>2012-02-14T13:35:05Z</time>
      </trkpt>
      <trkpt lat="45.32379" lon="5.83105">
        <ele>1472.6</ele>
        <time>2012-02-14T13:35:20Z</time>
      </trkpt>
      <trkpt lat="45.32378" lon="5.83105">
        <ele>1472.3</ele>
        <time>2012-02-14T13:35:21Z</time>
      </trkpt>
      <trkpt lat="45.32367" lon="5.83123">
        <ele>1474.5</ele>
        <time>2012-02-14T13:35:52Z</time>
      </trkpt>
      <trkpt lat="45.32361" lon="5.83131">
        <ele>1476.1</ele>
        <time>2012-02-14T13:36:06Z</time>
      </trkpt>
      <trkpt lat="45.32356" lon="5.83141">
        <ele>1476.4</ele>
        <time>2012-02-14T13:36:20Z</time>
      </trkpt>
      <trkpt lat="45.32352" lon="5.83151">
        <ele>1478.4</ele>
        <time>2012-02-14T13:36:35Z</time>
      </trkpt>
      <trkpt lat="45.32352" lon="5.83152">
        <ele>1478.2</ele>
        <time>2012-02-14T13:36:36Z</time>
      </trkpt>
      <trkpt lat="45.32342" lon="5.83172">
        <ele>1482</ele>
        <time>2012-02-14T13:37:06Z</time>
      </trkpt>
      <trkpt lat="45.32336" lon="5.83181">
        <ele>1484.4</ele>
        <time>2012-02-14T13:37:22Z</time>
      </trkpt>
      <trkpt lat="45.32331" lon="5.8319">
        <ele>1485.8</ele>
        <time>2012-02-14T13:37:41Z</time>
      </trkpt>
      <trkpt lat="45.32331" lon="5.83191">
        <ele>1485.7</ele>
        <time>2012-02-14T13:37:42Z</time>
      </trkpt>
      <trkpt lat="45.3232" lon="5.8321">
        <ele>1489.5</ele>
        <time>2012-02-14T13:38:23Z</time>
      </trkpt>
      <trkpt lat="45.32319" lon="5.83221">
        <ele>1491.5</ele>
        <time>2012-02-14T13:38:54Z</time>
      </trkpt>
      <trkpt lat="45.32352" lon="5.83152">
        <ele>1478.2</ele>
        <time>2012-02-14T13:36:36Z</time>
      </trkpt>
      <trkpt lat="45.32342" lon="5.83172">
        <ele>1482</ele>
        <time>2012-02-14T13:37:06Z</time>
      </trkpt>
      <trkpt lat="45.32336" lon="5.83181">
        <ele>1484.4</ele>
        <time>2012-02-14T13:37:22Z</time>
      </trkpt>
      <trkpt lat="45.32331" lon="5.8319">
        <ele>1485.8</ele>
        <time>2012-02-14T13:37:41Z</time>
      </trkpt>
      <trkpt lat="45.32331" lon="5.83191">
        <ele>1485.7</ele>
        <time>2012-02-14T13:37:42Z</time>
      </trkpt>
      <trkpt lat="45.3232" lon="5.8321">
        <ele>1489.5</ele>
        <time>2012-02-14T13:38:23Z</time>
      </trkpt>
      <trkpt lat="45.32319" lon="5.83221">
        <ele>1491.5</ele>
        <time>2012-02-14T13:38:54Z</time>
      </trkpt>
      <trkpt lat="45.32319" lon="5.83223">
        <ele>1491.6</ele>
        <time>2012-02-14T13:38:55Z</time>
      </trkpt>
      <trkpt lat="45.32326" lon="5.83236">
        <ele>1491.7</ele>
        <time>2012-02-14T13:40:01Z</time>
      </trkpt>
      <trkpt lat="45.32326" lon="5.83235">
        <ele>1491.7</ele>
        <time>2012-02-14T13:40:02Z</time>
      </trkpt>
      <trkpt lat="45.32317" lon="5.83239">
        <ele>1491.1</ele>
        <time>2012-02-14T13:41:22Z</time>
      </trkpt>
      <trkpt lat="45.32311" lon="5.83261">
        <ele>1496.1</ele>
        <time>2012-02-14T13:42:30Z</time>
      </trkpt>
      <trkpt lat="45.32311" lon="5.83261">
        <ele>1496.8</ele>
        <time>2012-02-14T13:42:31Z</time>
      </trkpt>
      <trkpt lat="45.32303" lon="5.83255">
        <ele>1500.6</ele>
        <time>2012-02-14T13:43:36Z</time>
      </trkpt>
      <trkpt lat="45.32292" lon="5.83264">
        <ele>1506</ele>
        <time>2012-02-14T13:44:36Z</time>
      </trkpt>
      <trkpt lat="45.32291" lon="5.83264">
        <ele>1506</ele>
        <time>2012-02-14T13:44:37Z</time>
      </trkpt>
      <trkpt lat="45.32275" lon="5.83267">
        <ele>1516.1</ele>
        <time>2012-02-14T13:47:25Z</time>
      </trkpt>
      <trkpt lat="45.32274" lon="5.83266">
        <ele>1516.3</ele>
        <time>2012-02-14T13:47:26Z</time>
      </trkpt>
      <trkpt lat="45.32276" lon="5.8326">
        <ele>1519</ele>
        <time>2012-02-14T13:48:29Z</time>
      </trkpt>
      <trkpt lat="45.32277" lon="5.8326">
        <ele>1519</ele>
        <time>2012-02-14T13:48:30Z</time>
      </trkpt>
      <trkpt lat="45.32277" lon="5.83258">
        <ele>1520.8</ele>
        <time>2012-02-14T13:49:18Z</time>
      </trkpt>
      <trkpt lat="45.32268" lon="5.83255">
        <ele>1521.5</ele>
        <time>2012-02-14T13:49:40Z</time>
      </trkpt>
      <trkpt lat="45.32268" lon="5.83255">
        <ele>1521.3</ele>
        <time>2012-02-14T13:49:41Z</time>
      </trkpt>
      <trkpt lat="45.32257" lon="5.83244">
        <ele>1526.9</ele>
        <time>2012-02-14T13:52:10Z</time>
      </trkpt>
      <trkpt lat="45.32257" lon="5.83243">
        <ele>1526.9</ele>
        <time>2012-02-14T13:52:11Z</time>
      </trkpt>
      <trkpt lat="45.32246" lon="5.83225">
        <ele>1530.9</ele>
        <time>2012-02-14T13:53:11Z</time>
      </trkpt>
      <trkpt lat="45.32245" lon="5.83212">
        <ele>1533.1</ele>
        <time>2012-02-14T13:53:53Z</time>
      </trkpt>
      <trkpt lat="45.32245" lon="5.83212">
        <ele>1533.1</ele>
        <time>2012-02-14T13:53:54Z</time>
      </trkpt>
      <trkpt lat="45.32243" lon="5.83189">
        <ele>1539.7</ele>
        <time>2012-02-14T13:56:12Z</time>
      </trkpt>
      <trkpt lat="45.32242" lon="5.83189">
        <ele>1540</ele>
        <time>2012-02-14T13:56:13Z</time>
      </trkpt>
      <trkpt lat="45.32232" lon="5.83182">
        <ele>1546.6</ele>
        <time>2012-02-14T13:57:38Z</time>
      </trkpt>
      <trkpt lat="45.32231" lon="5.83182">
        <ele>1546.6</ele>
        <time>2012-02-14T13:57:39Z</time>
      </trkpt>
      <trkpt lat="45.32223" lon="5.83197">
        <ele>1550.9</ele>
        <time>2012-02-14T13:59:03Z</time>
      </trkpt>
      <trkpt lat="45.32223" lon="5.83197">
        <ele>1551</ele>
        <time>2012-02-14T13:59:04Z</time>
      </trkpt>
      <trkpt lat="45.32217" lon="5.83194">
        <ele>1558.5</ele>
        <time>2012-02-14T14:01:00Z</time>
      </trkpt>
      <trkpt lat="45.32217" lon="5.83194">
        <ele>1558.2</ele>
        <time>2012-02-14T14:01:01Z</time>
      </trkpt>
      <trkpt lat="45.32219" lon="5.83169">
        <ele>1563.9</ele>
        <time>2012-02-14T14:02:31Z</time>
      </trkpt>
      <trkpt lat="45.32219" lon="5.83169">
        <ele>1563.8</ele>
        <time>2012-02-14T14:02:32Z</time>
      </trkpt>
      <trkpt lat="45.32225" lon="5.83146">
        <ele>1567.6</ele>
        <time>2012-02-14T14:03:35Z</time>
      </trkpt>
      <trkpt lat="45.32226" lon="5.83146">
        <ele>1567.4</ele>
        <time>2012-02-14T14:03:36Z</time>
      </trkpt>
      <trkpt lat="45.32212" lon="5.83131">
        <ele>1573.2</ele>
        <time>2012-02-14T14:04:17Z</time>
      </trkpt>
      <trkpt lat="45.32204" lon="5.83126">
        <ele>1575.3</ele>
        <time>2012-02-14T14:04:34Z</time>
      </trkpt>
      <trkpt lat="45.32195" lon="5.83127">
        <ele>1575.7</ele>
        <time>2012-02-14T14:05:08Z</time>
      </trkpt>
      <trkpt lat="45.32195" lon="5.83127">
        <ele>1576.5</ele>
        <time>2012-02-14T14:05:09Z</time>
      </trkpt>
      <trkpt lat="45.3218" lon="5.83138">
        <ele>1581</ele>
        <time>2012-02-14T14:05:49Z</time>
      </trkpt>
      <trkpt lat="45.32176" lon="5.83149">
        <ele>1584.6</ele>
        <time>2012-02-14T14:06:13Z</time>
      </trkpt>
      <trkpt lat="45.32176" lon="5.8315">
        <ele>1584.8</ele>
        <time>2012-02-14T14:06:14Z</time>
      </trkpt>
      <trkpt lat="45.32159" lon="5.83156">
        <ele>1590.2</ele>
        <time>2012-02-14T14:07:00Z</time>
      </trkpt>
      <trkpt lat="45.32151" lon="5.83153">
        <ele>1590.9</ele>
        <time>2012-02-14T14:07:31Z</time>
      </trkpt>
      <trkpt lat="45.3215" lon="5.83153">
        <ele>1590.9</ele>
        <time>2012-02-14T14:07:32Z</time>
      </trkpt>
      <trkpt lat="45.32134" lon="5.83147">
        <ele>1593.7</ele>
        <time>2012-02-14T14:07:58Z</time>
      </trkpt>
      <trkpt lat="45.32125" lon="5.83145">
        <ele>1596.4</ele>
        <time>2012-02-14T14:08:11Z</time>
      </trkpt>
      <trkpt lat="45.32117" lon="5.83146">
        <ele>1598.1</ele>
        <time>2012-02-14T14:08:29Z</time>
      </trkpt>
      <trkpt lat="45.32109" lon="5.8315">
        <ele>1599.6</ele>
        <time>2012-02-14T14:08:42Z</time>
      </trkpt>
      <trkpt lat="45.32108" lon="5.8315">
        <ele>1599.9</ele>
        <time>2012-02-14T14:08:43Z</time>
      </trkpt>
      <trkpt lat="45.32094" lon="5.83164">
        <ele>1603.9</ele>
        <time>2012-02-14T14:09:14Z</time>
      </trkpt>
      <trkpt lat="45.32089" lon="5.83174">
        <ele>1605.5</ele>
        <time>2012-02-14T14:09:29Z</time>
      </trkpt>
      <trkpt lat="45.32084" lon="5.83183">
        <ele>1607.3</ele>
        <time>2012-02-14T14:09:44Z</time>
      </trkpt>
      <trkpt lat="45.32083" lon="5.83184">
        <ele>1607.4</ele>
        <time>2012-02-14T14:09:45Z</time>
      </trkpt>
      <trkpt lat="45.32075" lon="5.83205">
        <ele>1613</ele>
        <time>2012-02-14T14:10:28Z</time>
      </trkpt>
      <trkpt lat="45.32079" lon="5.83216">
        <ele>1616.4</ele>
        <time>2012-02-14T14:11:00Z</time>
      </trkpt>
      <trkpt lat="45.32079" lon="5.83216">
        <ele>1616.6</ele>
        <time>2012-02-14T14:11:01Z</time>
      </trkpt>
      <trkpt lat="45.32082" lon="5.83228">
        <ele>1621.7</ele>
        <time>2012-02-14T14:12:23Z</time>
      </trkpt>
      <trkpt lat="45.32078" lon="5.8324">
        <ele>1627.2</ele>
        <time>2012-02-14T14:14:02Z</time>
      </trkpt>
      <trkpt lat="45.32077" lon="5.83251">
        <ele>1632.7</ele>
        <time>2012-02-14T14:15:01Z</time>
      </trkpt>
      <trkpt lat="45.32085" lon="5.83257">
        <ele>1636.1</ele>
        <time>2012-02-14T14:15:36Z</time>
      </trkpt>
      <trkpt lat="45.32086" lon="5.83257">
        <ele>1636.2</ele>
        <time>2012-02-14T14:15:37Z</time>
      </trkpt>
      <trkpt lat="45.32099" lon="5.83273">
        <ele>1639</ele>
        <time>2012-02-14T14:16:14Z</time>
      </trkpt>
      <trkpt lat="45.32092" lon="5.83281">
        <ele>1646.1</ele>
        <time>2012-02-14T14:17:09Z</time>
      </trkpt>
      <trkpt lat="45.32092" lon="5.83281">
        <ele>1646.3</ele>
        <time>2012-02-14T14:17:10Z</time>
      </trkpt>
      <trkpt lat="45.32103" lon="5.83299">
        <ele>1652.9</ele>
        <time>2012-02-14T14:18:07Z</time>
      </trkpt>
      <trkpt lat="45.32097" lon="5.83309">
        <ele>1658.2</ele>
        <time>2012-02-14T14:18:51Z</time>
      </trkpt>
      <trkpt lat="45.32097" lon="5.83309">
        <ele>1658.3</ele>
        <time>2012-02-14T14:18:52Z</time>
      </trkpt>
      <trkpt lat="45.32091" lon="5.83331">
        <ele>1665.4</ele>
        <time>2012-02-14T14:19:57Z</time>
      </trkpt>
      <trkpt lat="45.32091" lon="5.83332">
        <ele>1665.5</ele>
        <time>2012-02-14T14:19:58Z</time>
      </trkpt>
      <trkpt lat="45.32097" lon="5.83351">
        <ele>1671.4</ele>
        <time>2012-02-14T14:20:40Z</time>
      </trkpt>
      <trkpt lat="45.32105" lon="5.83357">
        <ele>1672.2</ele>
        <time>2012-02-14T14:20:51Z</time>
      </trkpt>
      <trkpt lat="45.32111" lon="5.83366">
        <ele>1674.1</ele>
        <time>2012-02-14T14:21:07Z</time>
      </trkpt>
      <trkpt lat="45.32111" lon="5.83366">
        <ele>1674.1</ele>
        <time>2012-02-14T14:21:08Z</time>
      </trkpt>
      <trkpt lat="45.32104" lon="5.83374">
        <ele>1682.2</ele>
        <time>2012-02-14T14:22:09Z</time>
      </trkpt>
      <trkpt lat="45.32112" lon="5.83395">
        <ele>1689.2</ele>
        <time>2012-02-14T14:23:34Z</time>
      </trkpt>
      <trkpt lat="45.32112" lon="5.83395">
        <ele>1689.4</ele>
        <time>2012-02-14T14:23:35Z</time>
      </trkpt>
      <trkpt lat="45.3212" lon="5.83416">
        <ele>1694.2</ele>
        <time>2012-02-14T14:24:13Z</time>
      </trkpt>
      <trkpt lat="45.32117" lon="5.83428">
        <ele>1696</ele>
        <time>2012-02-14T14:24:27Z</time>
      </trkpt>
      <trkpt lat="45.32115" lon="5.8344">
        <ele>1696.3</ele>
        <time>2012-02-14T14:24:38Z</time>
      </trkpt>
      <trkpt lat="45.32114" lon="5.83441">
        <ele>1696.3</ele>
        <time>2012-02-14T14:24:39Z</time>
      </trkpt>
      <trkpt lat="45.32117" lon="5.83428">
        <ele>1696</ele>
        <time>2012-02-14T14:24:27Z</time>
      </trkpt>
      <trkpt lat="45.32115" lon="5.8344">
        <ele>1696.3</ele>
        <time>2012-02-14T14:24:38Z</time>
      </trkpt>
      <trkpt lat="45.32114" lon="5.83441">
        <ele>1696.3</ele>
        <time>2012-02-14T14:24:39Z</time>
      </trkpt>
      <trkpt lat="45.32103" lon="5.83458">
        <ele>1699</ele>
        <time>2012-02-14T14:25:11Z</time>
      </trkpt>
      <trkpt lat="45.32095" lon="5.83465">
        <ele>1704.2</ele>
        <time>2012-02-14T14:25:34Z</time>
      </trkpt>
      <trkpt lat="45.3209" lon="5.83475">
        <ele>1705.2</ele>
        <time>2012-02-14T14:28:41Z</time>
      </trkpt>
      <trkpt lat="45.3209" lon="5.83476">
        <ele>1705.4</ele>
        <time>2012-02-14T14:28:42Z</time>
      </trkpt>
      <trkpt lat="45.32078" lon="5.83493">
        <ele>1707.2</ele>
        <time>2012-02-14T14:29:07Z</time>
      </trkpt>
      <trkpt lat="45.32072" lon="5.83501">
        <ele>1708.6</ele>
        <time>2012-02-14T14:29:25Z</time>
      </trkpt>
      <trkpt lat="45.32064" lon="5.83506">
        <ele>1709.1</ele>
        <time>2012-02-14T14:29:38Z</time>
      </trkpt>
      <trkpt lat="45.32058" lon="5.83515">
        <ele>1711.7</ele>
        <time>2012-02-14T14:29:52Z</time>
      </trkpt>
      <trkpt lat="45.32058" lon="5.83515">
        <ele>1712</ele>
        <time>2012-02-14T14:29:53Z</time>
      </trkpt>
      <trkpt lat="45.32051" lon="5.83537">
        <ele>1717.3</ele>
        <time>2012-02-14T14:30:22Z</time>
      </trkpt>
      <trkpt lat="45.32046" lon="5.83547">
        <ele>1718.2</ele>
        <time>2012-02-14T14:30:35Z</time>
      </trkpt>
      <trkpt lat="45.32043" lon="5.83559">
        <ele>1720.1</ele>
        <time>2012-02-14T14:30:48Z</time>
      </trkpt>
      <trkpt lat="45.32041" lon="5.83571">
        <ele>1722.4</ele>
        <time>2012-02-14T14:31:02Z</time>
      </trkpt>
      <trkpt lat="45.3204" lon="5.83572">
        <ele>1722.1</ele>
        <time>2012-02-14T14:31:03Z</time>
      </trkpt>
      <trkpt lat="45.32033" lon="5.83594">
        <ele>1723.9</ele>
        <time>2012-02-14T14:31:29Z</time>
      </trkpt>
      <trkpt lat="45.32028" lon="5.83604">
        <ele>1725.6</ele>
        <time>2012-02-14T14:31:44Z</time>
      </trkpt>
      <trkpt lat="45.32022" lon="5.83614">
        <ele>1728.8</ele>
        <time>2012-02-14T14:31:59Z</time>
      </trkpt>
      <trkpt lat="45.32021" lon="5.83626">
        <ele>1732.3</ele>
        <time>2012-02-14T14:32:17Z</time>
      </trkpt>
      <trkpt lat="45.32021" lon="5.83626">
        <ele>1732.3</ele>
        <time>2012-02-14T14:32:17Z</time>
      </trkpt>
      <trkpt lat="45.32022" lon="5.83626">
        <ele>1732.5</ele>
        <time>2012-02-14T14:32:18Z</time>
      </trkpt>
      <trkpt lat="45.32031" lon="5.83646">
        <ele>1734.1</ele>
        <time>2012-02-14T14:32:43Z</time>
      </trkpt>
      <trkpt lat="45.32034" lon="5.83658">
        <ele>1736.2</ele>
        <time>2012-02-14T14:32:56Z</time>
      </trkpt>
      <trkpt lat="45.32033" lon="5.83671">
        <ele>1738.6</ele>
        <time>2012-02-14T14:33:10Z</time>
      </trkpt>
      <trkpt lat="45.32029" lon="5.83681">
        <ele>1740.1</ele>
        <time>2012-02-14T14:33:23Z</time>
      </trkpt>
      <trkpt lat="45.32028" lon="5.83682">
        <ele>1740.1</ele>
        <time>2012-02-14T14:33:24Z</time>
      </trkpt>
      <trkpt lat="45.32021" lon="5.83703">
        <ele>1742.5</ele>
        <time>2012-02-14T14:33:49Z</time>
      </trkpt>
      <trkpt lat="45.32019" lon="5.83715">
        <ele>1744.6</ele>
        <time>2012-02-14T14:34:04Z</time>
      </trkpt>
      <trkpt lat="45.32015" lon="5.83725">
        <ele>1746.2</ele>
        <time>2012-02-14T14:34:16Z</time>
      </trkpt>
      <trkpt lat="45.32012" lon="5.83737">
        <ele>1746.4</ele>
        <time>2012-02-14T14:34:40Z</time>
      </trkpt>
      <trkpt lat="45.32012" lon="5.83737">
        <ele>1746.5</ele>
        <time>2012-02-14T14:34:41Z</time>
      </trkpt>
      <trkpt lat="45.32042" lon="5.83588">
        <ele>1725.3</ele>
        <time>2012-02-14T14:43:57Z</time>
      </trkpt>
      <trkpt lat="45.32043" lon="5.83578">
        <ele>1723.8</ele>
        <time>2012-02-14T14:43:59Z</time>
      </trkpt>
      <trkpt lat="45.32047" lon="5.83567">
        <ele>1721.6</ele>
        <time>2012-02-14T14:44:02Z</time>
      </trkpt>
      <trkpt lat="45.3205" lon="5.83557">
        <ele>1720</ele>
        <time>2012-02-14T14:44:05Z</time>
      </trkpt>
      <trkpt lat="45.3205" lon="5.83546">
        <ele>1718.3</ele>
        <time>2012-02-14T14:44:08Z</time>
      </trkpt>
      <trkpt lat="45.32055" lon="5.83538">
        <ele>1717</ele>
        <time>2012-02-14T14:44:12Z</time>
      </trkpt>
      <trkpt lat="45.32052" lon="5.83526">
        <ele>1714.3</ele>
        <time>2012-02-14T14:44:18Z</time>
      </trkpt>
      <trkpt lat="45.32054" lon="5.83518">
        <ele>1712.9</ele>
        <time>2012-02-14T14:44:20Z</time>
      </trkpt>
      <trkpt lat="45.32057" lon="5.83513">
        <ele>1712</ele>
        <time>2012-02-14T14:44:21Z</time>
      </trkpt>
      <trkpt lat="45.32061" lon="5.83504">
        <ele>1710.3</ele>
        <time>2012-02-14T14:44:23Z</time>
      </trkpt>
      <trkpt lat="45.32066" lon="5.83497">
        <ele>1708.6</ele>
        <time>2012-02-14T14:44:25Z</time>
      </trkpt>
      <trkpt lat="45.3207" lon="5.83489">
        <ele>1707.5</ele>
        <time>2012-02-14T14:44:27Z</time>
      </trkpt>
      <trkpt lat="45.32075" lon="5.83482">
        <ele>1706.5</ele>
        <time>2012-02-14T14:44:29Z</time>
      </trkpt>
      <trkpt lat="45.32079" lon="5.83475">
        <ele>1705.5</ele>
        <time>2012-02-14T14:44:31Z</time>
      </trkpt>
      <trkpt lat="45.32085" lon="5.83467">
        <ele>1704.4</ele>
        <time>2012-02-14T14:44:34Z</time>
      </trkpt>
      <trkpt lat="45.32092" lon="5.8346">
        <ele>1701.6</ele>
        <time>2012-02-14T14:44:43Z</time>
      </trkpt>
      <trkpt lat="45.32095" lon="5.83458">
        <ele>1701.1</ele>
        <time>2012-02-14T14:44:44Z</time>
      </trkpt>
      <trkpt lat="45.32103" lon="5.83451">
        <ele>1700.6</ele>
        <time>2012-02-14T14:44:46Z</time>
      </trkpt>
      <trkpt lat="45.3211" lon="5.83446">
        <ele>1698</ele>
        <time>2012-02-14T14:44:48Z</time>
      </trkpt>
      <trkpt lat="45.32116" lon="5.83438">
        <ele>1695.4</ele>
        <time>2012-02-14T14:44:52Z</time>
      </trkpt>
      <trkpt lat="45.32118" lon="5.83427">
        <ele>1694.9</ele>
        <time>2012-02-14T14:44:56Z</time>
      </trkpt>
      <trkpt lat="45.32122" lon="5.83419">
        <ele>1694.4</ele>
        <time>2012-02-14T14:44:59Z</time>
      </trkpt>
      <trkpt lat="45.32127" lon="5.8341">
        <ele>1693.1</ele>
        <time>2012-02-14T14:45:02Z</time>
      </trkpt>
      <trkpt lat="45.32127" lon="5.83398">
        <ele>1690.1</ele>
        <time>2012-02-14T14:45:10Z</time>
      </trkpt>
      <trkpt lat="45.32083" lon="5.83323">
        <ele>1658.4</ele>
        <time>2012-02-14T14:47:50Z</time>
      </trkpt>
      <trkpt lat="45.32089" lon="5.83315">
        <ele>1655.3</ele>
        <time>2012-02-14T14:47:57Z</time>
      </trkpt>
      <trkpt lat="45.32094" lon="5.83306">
        <ele>1651.8</ele>
        <time>2012-02-14T14:48:11Z</time>
      </trkpt>
      <trkpt lat="45.32094" lon="5.83304">
        <ele>1651.8</ele>
        <time>2012-02-14T14:48:12Z</time>
      </trkpt>
      <trkpt lat="45.32096" lon="5.83288">
        <ele>1648.1</ele>
        <time>2012-02-14T14:48:21Z</time>
      </trkpt>
      <trkpt lat="45.32103" lon="5.83283">
        <ele>1645.2</ele>
        <time>2012-02-14T14:48:25Z</time>
      </trkpt>
      <trkpt lat="45.32112" lon="5.83283">
        <ele>1642.3</ele>
        <time>2012-02-14T14:48:30Z</time>
      </trkpt>
      <trkpt lat="45.32112" lon="5.8327">
        <ele>1638.6</ele>
        <time>2012-02-14T14:48:40Z</time>
      </trkpt>
      <trkpt lat="45.32113" lon="5.83258">
        <ele>1635.2</ele>
        <time>2012-02-14T14:48:48Z</time>
      </trkpt>
      <trkpt lat="45.32121" lon="5.83256">
        <ele>1632.2</ele>
        <time>2012-02-14T14:48:51Z</time>
      </trkpt>
      <trkpt lat="45.32123" lon="5.83245">
        <ele>1627.9</ele>
        <time>2012-02-14T14:48:58Z</time>
      </trkpt>
      <trkpt lat="45.32126" lon="5.83233">
        <ele>1622.4</ele>
        <time>2012-02-14T14:49:14Z</time>
      </trkpt>
      <trkpt lat="45.3221" lon="5.83131">
        <ele>1570.4</ele>
        <time>2012-02-14T14:53:19Z</time>
      </trkpt>
      <trkpt lat="45.32211" lon="5.83133">
        <ele>1569.9</ele>
        <time>2012-02-14T14:53:20Z</time>
      </trkpt>
      <trkpt lat="45.32216" lon="5.83151">
        <ele>1562.2</ele>
        <time>2012-02-14T14:53:39Z</time>
      </trkpt>
      <trkpt lat="45.32214" lon="5.83163">
        <ele>1559.5</ele>
        <time>2012-02-14T14:53:44Z</time>
      </trkpt>
      <trkpt lat="45.32223" lon="5.83167">
        <ele>1552.2</ele>
        <time>2012-02-14T14:54:05Z</time>
      </trkpt>
      <trkpt lat="45.32228" lon="5.83176">
        <ele>1548</ele>
        <time>2012-02-14T14:54:17Z</time>
      </trkpt>
      <trkpt lat="45.32228" lon="5.83185">
        <ele>1546.8</ele>
        <time>2012-02-14T14:54:19Z</time>
      </trkpt>
      <trkpt lat="45.32228" lon="5.83198">
        <ele>1544.1</ele>
        <time>2012-02-14T14:54:24Z</time>
      </trkpt>
      <trkpt lat="45.32228" lon="5.83198">
        <ele>1544</ele>
        <time>2012-02-14T14:54:25Z</time>
      </trkpt>
      <trkpt lat="45.32335" lon="5.83183">
        <ele>1483.5</ele>
        <time>2012-02-14T14:56:09Z</time>
      </trkpt>
      <trkpt lat="45.32342" lon="5.8318">
        <ele>1480.4</ele>
        <time>2012-02-14T14:56:13Z</time>
      </trkpt>
      <trkpt lat="45.32347" lon="5.83169">
        <ele>1477.5</ele>
        <time>2012-02-14T14:56:16Z</time>
      </trkpt>
      <trkpt lat="45.32352" lon="5.8316">
        <ele>1475.1</ele>
        <time>2012-02-14T14:56:22Z</time>
      </trkpt>
      <trkpt lat="45.32357" lon="5.83149">
        <ele>1473.9</ele>
        <time>2012-02-14T14:56:25Z</time>
      </trkpt>
      <trkpt lat="45.32362" lon="5.8314">
        <ele>1472.5</ele>
        <time>2012-02-14T14:56:27Z</time>
      </trkpt>
      <trkpt lat="45.32366" lon="5.83133">
        <ele>1471.5</ele>
        <time>2012-02-14T14:56:29Z</time>
      </trkpt>
      <trkpt lat="45.32373" lon="5.83125">
        <ele>1470.5</ele>
        <time>2012-02-14T14:56:32Z</time>
      </trkpt>
      <trkpt lat="45.32375" lon="5.83122">
        <ele>1469.9</ele>
        <time>2012-02-14T14:56:33Z</time>
      </trkpt>
      <trkpt lat="45.32385" lon="5.83108">
        <ele>1468.4</ele>
        <time>2012-02-14T14:56:38Z</time>
      </trkpt>
      <trkpt lat="45.3239" lon="5.83103">
        <ele>1467.2</ele>
        <time>2012-02-14T14:56:40Z</time>
      </trkpt>
      <trkpt lat="45.32396" lon="5.83097">
        <ele>1465.6</ele>
        <time>2012-02-14T14:56:42Z</time>
      </trkpt>
      <trkpt lat="45.32402" lon="5.83091">
        <ele>1463.7</ele>
        <time>2012-02-14T14:56:44Z</time>
      </trkpt>
      <trkpt lat="45.32409" lon="5.83088">
        <ele>1461.7</ele>
        <time>2012-02-14T14:56:46Z</time>
      </trkpt>
      <trkpt lat="45.32417" lon="5.83082">
        <ele>1458.9</ele>
        <time>2012-02-14T14:56:50Z</time>
      </trkpt>
      <trkpt lat="45.32425" lon="5.83077">
        <ele>1457.6</ele>
        <time>2012-02-14T14:56:54Z</time>
      </trkpt>
      <trkpt lat="45.32432" lon="5.8307">
        <ele>1456.7</ele>
        <time>2012-02-14T14:56:57Z</time>
      </trkpt>
      <trkpt lat="45.32438" lon="5.83062">
        <ele>1454.9</ele>
        <time>2012-02-14T14:56:59Z</time>
      </trkpt>
      <trkpt lat="45.32445" lon="5.83054">
        <ele>1452.4</ele>
        <time>2012-02-14T14:57:01Z</time>
      </trkpt>
      <trkpt lat="45.32451" lon="5.83048">
        <ele>1450.3</ele>
        <time>2012-02-14T14:57:03Z</time>
      </trkpt>
      <trkpt lat="45.32458" lon="5.83043">
        <ele>1448.9</ele>
        <time>2012-02-14T14:57:05Z</time>
      </trkpt>
      <trkpt lat="45.32464" lon="5.83037">
        <ele>1447.7</ele>
        <time>2012-02-14T14:57:07Z</time>
      </trkpt>
      <trkpt lat="45.3247" lon="5.83031">
        <ele>1446.7</ele>
        <time>2012-02-14T14:57:09Z</time>
      </trkpt>
      <trkpt lat="45.32476" lon="5.83024">
        <ele>1445.4</ele>
        <time>2012-02-14T14:57:11Z</time>
      </trkpt>
      <trkpt lat="45.32482" lon="5.83018">
        <ele>1443.7</ele>
        <time>2012-02-14T14:57:13Z</time>
      </trkpt>
      <trkpt lat="45.32487" lon="5.83012">
        <ele>1441.9</ele>
        <time>2012-02-14T14:57:15Z</time>
      </trkpt>
      <trkpt lat="45.32492" lon="5.83005">
        <ele>1440.6</ele>
        <time>2012-02-14T14:57:17Z</time>
      </trkpt>
      <trkpt lat="45.325" lon="5.82999">
        <ele>1438.8</ele>
        <time>2012-02-14T14:57:19Z</time>
      </trkpt>
      <trkpt lat="45.32507" lon="5.82993">
        <ele>1437.2</ele>
        <time>2012-02-14T14:57:21Z</time>
      </trkpt>
      <trkpt lat="45.32511" lon="5.82988">
        <ele>1435.9</ele>
        <time>2012-02-14T14:57:22Z</time>
      </trkpt>
      <trkpt lat="45.32516" lon="5.82983">
        <ele>1434.9</ele>
        <time>2012-02-14T14:57:23Z</time>
      </trkpt>
      <trkpt lat="45.32522" lon="5.82977">
        <ele>1433.4</ele>
        <time>2012-02-14T14:57:24Z</time>
      </trkpt>
      <trkpt lat="45.32527" lon="5.82972">
        <ele>1432.2</ele>
        <time>2012-02-14T14:57:25Z</time>
      </trkpt>
      <trkpt lat="45.32533" lon="5.82965">
        <ele>1430.2</ele>
        <time>2012-02-14T14:57:27Z</time>
      </trkpt>
      <trkpt lat="45.32542" lon="5.82966">
        <ele>1429.4</ele>
        <time>2012-02-14T14:57:37Z</time>
      </trkpt>
      <trkpt lat="45.32543" lon="5.82965">
        <ele>1429</ele>
        <time>2012-02-14T14:57:38Z</time>
      </trkpt>
      <trkpt lat="45.32558" lon="5.82963">
        <ele>1425</ele>
        <time>2012-02-14T14:57:54Z</time>
      </trkpt>
      <trkpt lat="45.32654" lon="5.83154">
        <ele>1287.7</ele>
        <time>2012-02-14T15:13:16Z</time>
      </trkpt>
      <trkpt lat="45.32661" lon="5.83154">
        <ele>1283.8</ele>
        <time>2012-02-14T15:13:22Z</time>
      </trkpt>
      <trkpt lat="45.32667" lon="5.83164">
        <ele>1279.3</ele>
        <time>2012-02-14T15:13:40Z</time>
      </trkpt>
      <trkpt lat="45.32667" lon="5.83164">
        <ele>1279.3</ele>
        <time>2012-02-14T15:13:41Z</time>
      </trkpt>
      <trkpt lat="45.32682" lon="5.8317">
        <ele>1269.7</ele>
        <time>2012-02-14T15:14:07Z</time>
      </trkpt>
      <trkpt lat="45.3269" lon="5.83175">
        <ele>1265.9</ele>
        <time>2012-02-14T15:14:13Z</time>
      </trkpt>
      <trkpt lat="45.32694" lon="5.83185">
        <ele>1261.7</ele>
        <time>2012-02-14T15:14:18Z</time>
      </trkpt>
      <trkpt lat="45.327" lon="5.83191">
        <ele>1254.2</ele>
        <time>2012-02-14T15:14:28Z</time>
      </trkpt>
      <trkpt lat="45.32707" lon="5.83197">
        <ele>1250.6</ele>
        <time>2012-02-14T15:14:32Z</time>
      </trkpt>
      <trkpt lat="45.32715" lon="5.83202">
        <ele>1247.3</ele>
        <time>2012-02-14T15:14:35Z</time>
      </trkpt>
      <trkpt lat="45.32722" lon="5.83208">
        <ele>1241</ele>
        <time>2012-02-14T15:14:42Z</time>
      </trkpt>
      <trkpt lat="45.32723" lon="5.83209">
        <ele>1240.7</ele>
        <time>2012-02-14T15:14:43Z</time>
      </trkpt>
      <trkpt lat="45.32738" lon="5.83213">
        <ele>1240.5</ele>
        <time>2012-02-14T15:14:57Z</time>
      </trkpt>
      <trkpt lat="45.32746" lon="5.83211">
        <ele>1236.6</ele>
        <time>2012-02-14T15:15:06Z</time>
      </trkpt>
      <trkpt lat="45.3291" lon="5.83255">
        <ele>1173.2</ele>
        <time>2012-02-14T15:17:16Z</time>
      </trkpt>
      <trkpt lat="45.32915" lon="5.83265">
        <ele>1169.8</ele>
        <time>2012-02-14T15:17:20Z</time>
      </trkpt>
      <trkpt lat="45.32918" lon="5.83277">
        <ele>1166</ele>
        <time>2012-02-14T15:17:25Z</time>
      </trkpt>
      <trkpt lat="45.32927" lon="5.83279">
        <ele>1163.8</ele>
        <time>2012-02-14T15:17:29Z</time>
      </trkpt>
      <trkpt lat="45.32931" lon="5.83288">
        <ele>1161.7</ele>
        <time>2012-02-14T15:17:32Z</time>
      </trkpt>
      <trkpt lat="45.32937" lon="5.83295">
        <ele>1159.4</ele>
        <time>2012-02-14T15:17:36Z</time>
      </trkpt>
      <trkpt lat="45.32939" lon="5.83307">
        <ele>1157</ele>
        <time>2012-02-14T15:17:39Z</time>
      </trkpt>
      <trkpt lat="45.32945" lon="5.83315">
        <ele>1154.9</ele>
        <time>2012-02-14T15:17:44Z</time>
      </trkpt>
      <trkpt lat="45.32953" lon="5.83319">
        <ele>1151.6</ele>
        <time>2012-02-14T15:17:55Z</time>
      </trkpt>
      <trkpt lat="45.32954" lon="5.8332">
        <ele>1151.7</ele>
        <time>2012-02-14T15:17:56Z</time>
      </trkpt>
      <trkpt lat="45.3297" lon="5.83326">
        <ele>1150.8</ele>
        <time>2012-02-14T15:18:23Z</time>
      </trkpt>
      <trkpt lat="45.32978" lon="5.8333">
        <ele>1147.2</ele>
        <time>2012-02-14T15:18:34Z</time>
      </trkpt>
      <trkpt lat="45.32986" lon="5.8333">
        <ele>1145.1</ele>
        <time>2012-02-14T15:18:37Z</time>
      </trkpt>
      <trkpt lat="45.32994" lon="5.8333">
        <ele>1141</ele>
        <time>2012-02-14T15:18:43Z</time>
      </trkpt>
      <trkpt lat="45.33268" lon="5.83416">
        <ele>1032.8</ele>
        <time>2012-02-14T15:23:16Z</time>
      </trkpt>
      <trkpt lat="45.33274" lon="5.83425">
        <ele>1031.4</ele>
        <time>2012-02-14T15:23:19Z</time>
      </trkpt>
      <trkpt lat="45.33282" lon="5.83429">
        <ele>1027.7</ele>
        <time>2012-02-14T15:23:23Z</time>
      </trkpt>
      <trkpt lat="45.33285" lon="5.8343">
        <ele>1026.7</ele>
        <time>2012-02-14T15:23:24Z</time>
      </trkpt>
      <trkpt lat="45.33296" lon="5.83432">
        <ele>1024.3</ele>
        <time>2012-02-14T15:23:26Z</time>
      </trkpt>
      <trkpt lat="45.33303" lon="5.83435">
        <ele>1023.1</ele>
        <time>2012-02-14T15:23:27Z</time>
      </trkpt>
      <trkpt lat="45.33309" lon="5.83438">
        <ele>1021.4</ele>
        <time>2012-02-14T15:23:28Z</time>
      </trkpt>
      <trkpt lat="45.33315" lon="5.8344">
        <ele>1020.1</ele>
        <time>2012-02-14T15:23:29Z</time>
      </trkpt>
      <trkpt lat="45.33323" lon="5.83443">
        <ele>1019.2</ele>
        <time>2012-02-14T15:23:30Z</time>
      </trkpt>
      <trkpt lat="45.33329" lon="5.83446">
        <ele>1017.6</ele>
        <time>2012-02-14T15:23:31Z</time>
      </trkpt>
      <trkpt lat="45.33336" lon="5.83449">
        <ele>1016.4</ele>
        <time>2012-02-14T15:23:32Z</time>
      </trkpt>
      <trkpt lat="45.33343" lon="5.83452">
        <ele>1015.2</ele>
        <time>2012-02-14T15:23:33Z</time>
      </trkpt>
      <trkpt lat="45.3335" lon="5.83455">
        <ele>1014.3</ele>
        <time>2012-02-14T15:23:34Z</time>
      </trkpt>
      <trkpt lat="45.33356" lon="5.83457">
        <ele>1013</ele>
        <time>2012-02-14T15:23:35Z</time>
      </trkpt>
      <trkpt lat="45.33364" lon="5.83461">
        <ele>1011.4</ele>
        <time>2012-02-14T15:23:39Z</time>
      </trkpt>
      <trkpt lat="45.33372" lon="5.83465">
        <ele>1013</ele>
        <time>2012-02-14T15:23:49Z</time>
      </trkpt>
      <trkpt lat="45.3338" lon="5.83468">
        <ele>1013.4</ele>
        <time>2012-02-14T15:23:59Z</time>
      </trkpt>
      <trkpt lat="45.33388" lon="5.8347">
        <ele>1014.8</ele>
        <time>2012-02-14T15:24:11Z</time>
      </trkpt>
      <trkpt lat="45.33397" lon="5.83468">
        <ele>1015.2</ele>
        <time>2012-02-14T15:24:25Z</time>
      </trkpt>
      <trkpt lat="45.33397" lon="5.83468">
        <ele>1015.1</ele>
        <time>2012-02-14T15:24:26Z</time>
      </trkpt>
      <trkpt lat="45.33414" lon="5.83465">
        <ele>1011.7</ele>
        <time>2012-02-14T15:25:33Z</time>
      </trkpt>
      <trkpt lat="45.33416" lon="5.83466">
        <ele>1010.4</ele>
        <time>2012-02-14T15:25:34Z</time>
      </trkpt>
      <trkpt lat="45.33429" lon="5.8347">
        <ele>1005.5</ele>
        <time>2012-02-14T15:25:41Z</time>
      </trkpt>
      <trkpt lat="45.33437" lon="5.83471">
        <ele>1000.8</ele>
        <time>2012-02-14T15:25:46Z</time>
      </trkpt>
      <trkpt lat="45.33445" lon="5.83473">
        <ele>997.4</ele>
        <time>2012-02-14T15:25:51Z</time>
      </trkpt>
      <trkpt lat="45.33453" lon="5.83475">
        <ele>995.2</ele>
        <time>2012-02-14T15:25:55Z</time>
      </trkpt>
      <trkpt lat="45.33453" lon="5.83475">
        <ele>995.2</ele>
        <time>2012-02-14T15:25:55Z</time>
      </trkpt>
      <trkpt lat="45.33461" lon="5.83472">
        <ele>992.4</ele>
        <time>2012-02-14T15:26:01Z</time>
      </trkpt>
      <trkpt lat="45.3347" lon="5.83472">
        <ele>988.1</ele>
        <time>2012-02-14T15:26:12Z</time>
      </trkpt>
      <trkpt lat="45.33478" lon="5.83469">
        <ele>987.4</ele>
        <time>2012-02-14T15:26:32Z</time>
      </trkpt>
      <trkpt lat="45.33484" lon="5.83459">
        <ele>983.6</ele>
        <time>2012-02-14T15:26:41Z</time>
      </trkpt>
      <trkpt lat="45.33484" lon="5.83459">
        <ele>983.3</ele>
        <time>2012-02-14T15:26:42Z</time>
      </trkpt>
      <trkpt lat="45.33493" lon="5.83441">
        <ele>979</ele>
        <time>2012-02-14T15:27:01Z</time>
      </trkpt>
      <trkpt lat="45.33495" lon="5.83429">
        <ele>976</ele>
        <time>2012-02-14T15:27:07Z</time>
      </trkpt>
      <trkpt lat="45.33497" lon="5.83418">
        <ele>972.1</ele>
        <time>2012-02-14T15:27:12Z</time>
      </trkpt>
      <trkpt lat="45.33502" lon="5.83409">
        <ele>970.5</ele>
        <time>2012-02-14T15:27:15Z</time>
      </trkpt>
      <trkpt lat="45.33508" lon="5.83403">
        <ele>968.2</ele>
        <time>2012-02-14T15:27:17Z</time>
      </trkpt>
      <trkpt lat="45.33514" lon="5.83395">
        <ele>964.9</ele>
        <time>2012-02-14T15:27:20Z</time>
      </trkpt>
      <trkpt lat="45.3352" lon="5.83387">
        <ele>961.5</ele>
        <time>2012-02-14T15:27:23Z</time>
      </trkpt>
      <trkpt lat="45.33525" lon="5.83379">
        <ele>958.2</ele>
        <time>2012-02-14T15:27:26Z</time>
      </trkpt>
      <trkpt lat="45.33527" lon="5.83367">
        <ele>954.1</ele>
        <time>2012-02-14T15:27:36Z</time>
      </trkpt>
      <trkpt lat="45.33536" lon="5.83367">
        <ele>950.1</ele>
        <time>2012-02-14T15:27:43Z</time>
      </trkpt>
      <trkpt lat="45.33581" lon="5.8345">
        <ele>922.7</ele>
        <time>2012-02-14T15:29:07Z</time>
      </trkpt>
      <trkpt lat="45.33587" lon="5.83472">
        <ele>922.5</ele>
        <time>2012-02-14T15:30:05Z</time>
      </trkpt>
      <trkpt lat="45.33587" lon="5.83483">
        <ele>922.5</ele>
        <time>2012-02-14T15:30:10Z</time>
      </trkpt>
      <trkpt lat="45.33587" lon="5.83485">
        <ele>922.4</ele>
        <time>2012-02-14T15:30:11Z</time>
      </trkpt>
      <trkpt lat="45.33587" lon="5.83506">
        <ele>924.1</ele>
        <time>2012-02-14T15:30:19Z</time>
      </trkpt>
      <trkpt lat="45.33584" lon="5.83517">
        <ele>923.8</ele>
        <time>2012-02-14T15:30:24Z</time>
      </trkpt>
      <trkpt lat="45.33582" lon="5.83527">
        <ele>924.3</ele>
        <time>2012-02-14T15:30:28Z</time>
      </trkpt>
      <trkpt lat="45.33579" lon="5.83539">
        <ele>924.5</ele>
        <time>2012-02-14T15:30:32Z</time>
      </trkpt>
      <trkpt lat="45.33576" lon="5.83549">
        <ele>924.5</ele>
        <time>2012-02-14T15:30:35Z</time>
      </trkpt>
      <trkpt lat="45.33573" lon="5.8356">
        <ele>924.4</ele>
        <time>2012-02-14T15:30:38Z</time>
      </trkpt>
      <trkpt lat="45.33569" lon="5.83571">
        <ele>923.8</ele>
        <time>2012-02-14T15:30:41Z</time>
      </trkpt>
      <trkpt lat="45.33566" lon="5.83582">
        <ele>924.2</ele>
        <time>2012-02-14T15:30:45Z</time>
      </trkpt>
      <trkpt lat="45.33564" lon="5.83594">
        <ele>924.4</ele>
        <time>2012-02-14T15:30:49Z</time>
      </trkpt>
      <trkpt lat="45.33561" lon="5.83605">
        <ele>924.7</ele>
        <time>2012-02-14T15:30:53Z</time>
      </trkpt>
      <trkpt lat="45.33558" lon="5.83615">
        <ele>924.5</ele>
        <time>2012-02-14T15:30:57Z</time>
      </trkpt>
      <trkpt lat="45.33554" lon="5.83625">
        <ele>926.3</ele>
        <time>2012-02-14T15:31:03Z</time>
      </trkpt>
      <trkpt lat="45.3355" lon="5.83635">
        <ele>926.1</ele>
        <time>2012-02-14T15:31:09Z</time>
      </trkpt>
      <trkpt lat="45.33545" lon="5.83645">
        <ele>926.4</ele>
        <time>2012-02-14T15:31:14Z</time>
      </trkpt>
      <trkpt lat="45.33544" lon="5.83646">
        <ele>926.3</ele>
        <time>2012-02-14T15:31:15Z</time>
      </trkpt>
      <trkpt lat="45.33535" lon="5.83662">
        <ele>926.2</ele>
        <time>2012-02-14T15:31:23Z</time>
      </trkpt>
      <trkpt lat="45.3353" lon="5.83669">
        <ele>926.1</ele>
        <time>2012-02-14T15:31:26Z</time>
      </trkpt>
      <trkpt lat="45.33524" lon="5.83676">
        <ele>926.5</ele>
        <time>2012-02-14T15:31:30Z</time>
      </trkpt>
      <trkpt lat="45.33518" lon="5.83684">
        <ele>926.7</ele>
        <time>2012-02-14T15:31:35Z</time>
      </trkpt>
      <trkpt lat="45.33511" lon="5.83691">
        <ele>927.2</ele>
        <time>2012-02-14T15:31:40Z</time>
      </trkpt>
      <trkpt lat="45.33505" lon="5.83696">
        <ele>927.2</ele>
        <time>2012-02-14T15:31:43Z</time>
      </trkpt>
      <trkpt lat="45.33499" lon="5.83701">
        <ele>927.5</ele>
        <time>2012-02-14T15:31:46Z</time>
      </trkpt>
      <trkpt lat="45.33491" lon="5.83706">
        <ele>927.7</ele>
        <time>2012-02-14T15:31:50Z</time>
      </trkpt>
      <trkpt lat="45.33484" lon="5.83712">
        <ele>927.6</ele>
        <time>2012-02-14T15:31:55Z</time>
      </trkpt>
      <trkpt lat="45.33476" lon="5.83716">
        <ele>928.7</ele>
        <time>2012-02-14T15:32:04Z</time>
      </trkpt>
      <trkpt lat="45.33468" lon="5.83719">
        <ele>928.8</ele>
        <time>2012-02-14T15:32:10Z</time>
      </trkpt>
      <trkpt lat="45.33461" lon="5.83723">
        <ele>928.7</ele>
        <time>2012-02-14T15:32:15Z</time>
      </trkpt>
      <trkpt lat="45.33459" lon="5.83724">
        <ele>928.5</ele>
        <time>2012-02-14T15:32:16Z</time>
      </trkpt>
      <trkpt lat="45.33448" lon="5.83736">
        <ele>928.6</ele>
        <time>2012-02-14T15:32:25Z</time>
      </trkpt>
      <trkpt lat="45.33443" lon="5.83744">
        <ele>929.5</ele>
        <time>2012-02-14T15:32:31Z</time>
      </trkpt>
      <trkpt lat="45.33438" lon="5.83754">
        <ele>929.5</ele>
        <time>2012-02-14T15:32:36Z</time>
      </trkpt>
      <trkpt lat="45.33434" lon="5.83764">
        <ele>930.3</ele>
        <time>2012-02-14T15:32:40Z</time>
      </trkpt>
      <trkpt lat="45.33431" lon="5.83774">
        <ele>930.2</ele>
        <time>2012-02-14T15:32:44Z</time>
      </trkpt>
      <trkpt lat="45.33427" lon="5.83783">
        <ele>930</ele>
        <time>2012-02-14T15:32:48Z</time>
      </trkpt>
      <trkpt lat="45.33422" lon="5.83792">
        <ele>930.1</ele>
        <time>2012-02-14T15:32:52Z</time>
      </trkpt>
      <trkpt lat="45.33417" lon="5.838">
        <ele>930.5</ele>
        <time>2012-02-14T15:32:56Z</time>
      </trkpt>
      <trkpt lat="45.3341" lon="5.83808">
        <ele>931.9</ele>
        <time>2012-02-14T15:33:10Z</time>
      </trkpt>
      <trkpt lat="45.33408" lon="5.83819">
        <ele>931.8</ele>
        <time>2012-02-14T15:33:24Z</time>
      </trkpt>
      <trkpt lat="45.33408" lon="5.83821">
        <ele>932</ele>
        <time>2012-02-14T15:33:25Z</time>
      </trkpt>
      <trkpt lat="45.33398" lon="5.83838">
        <ele>932.5</ele>
        <time>2012-02-14T15:33:36Z</time>
      </trkpt>
      <trkpt lat="45.33393" lon="5.83847">
        <ele>933.1</ele>
        <time>2012-02-14T15:33:41Z</time>
      </trkpt>
      <trkpt lat="45.3339" lon="5.83858">
        <ele>933.7</ele>
        <time>2012-02-14T15:33:46Z</time>
      </trkpt>
      <trkpt lat="45.33386" lon="5.83869">
        <ele>933.6</ele>
        <time>2012-02-14T15:33:51Z</time>
      </trkpt>
      <trkpt lat="45.33382" lon="5.83879">
        <ele>933.8</ele>
        <time>2012-02-14T15:33:55Z</time>
      </trkpt>
      <trkpt lat="45.33378" lon="5.83887">
        <ele>933.5</ele>
        <time>2012-02-14T15:33:58Z</time>
      </trkpt>
      <trkpt lat="45.33373" lon="5.83897">
        <ele>933.7</ele>
        <time>2012-02-14T15:34:02Z</time>
      </trkpt>
      <trkpt lat="45.33369" lon="5.83907">
        <ele>934.3</ele>
        <time>2012-02-14T15:34:06Z</time>
      </trkpt>
      <trkpt lat="45.33365" lon="5.83917">
        <ele>934.1</ele>
        <time>2012-02-14T15:34:11Z</time>
      </trkpt>
      <trkpt lat="45.33362" lon="5.83929">
        <ele>935.1</ele>
        <time>2012-02-14T15:34:21Z</time>
      </trkpt>
      <trkpt lat="45.33357" lon="5.83937">
        <ele>935.3</ele>
        <time>2012-02-14T15:34:28Z</time>
      </trkpt>
      <trkpt lat="45.33356" lon="5.83939">
        <ele>935.4</ele>
        <time>2012-02-14T15:34:29Z</time>
      </trkpt>
      <trkpt lat="45.3335" lon="5.83959">
        <ele>935.5</ele>
        <time>2012-02-14T15:34:40Z</time>
      </trkpt>
      <trkpt lat="45.33348" lon="5.8397">
        <ele>936</ele>
        <time>2012-02-14T15:34:45Z</time>
      </trkpt>
      <trkpt lat="45.33345" lon="5.83981">
        <ele>937.4</ele>
        <time>2012-02-14T15:34:50Z</time>
      </trkpt>
      <trkpt lat="45.33342" lon="5.83991">
        <ele>937.4</ele>
        <time>2012-02-14T15:34:54Z</time>
      </trkpt>
      <trkpt lat="45.33336" lon="5.84">
        <ele>937.1</ele>
        <time>2012-02-14T15:34:58Z</time>
      </trkpt>
      <trkpt lat="45.33331" lon="5.84009">
        <ele>937.1</ele>
        <time>2012-02-14T15:35:02Z</time>
      </trkpt>
      <trkpt lat="45.33325" lon="5.84018">
        <ele>938.1</ele>
        <time>2012-02-14T15:35:11Z</time>
      </trkpt>
      <trkpt lat="45.33319" lon="5.84027">
        <ele>939.6</ele>
        <time>2012-02-14T15:35:25Z</time>
      </trkpt>
      <trkpt lat="45.33316" lon="5.84039">
        <ele>939.4</ele>
        <time>2012-02-14T15:35:52Z</time>
      </trkpt>
      <trkpt lat="45.33314" lon="5.84041">
        <ele>939.3</ele>
        <time>2012-02-14T15:35:53Z</time>
      </trkpt>
      <trkpt lat="45.33306" lon="5.84058">
        <ele>939.4</ele>
        <time>2012-02-14T15:36:00Z</time>
      </trkpt>
      <trkpt lat="45.33304" lon="5.8407">
        <ele>939.1</ele>
        <time>2012-02-14T15:36:04Z</time>
      </trkpt>
      <trkpt lat="45.33302" lon="5.8408">
        <ele>938.9</ele>
        <time>2012-02-14T15:36:07Z</time>
      </trkpt>
      <trkpt lat="45.33302" lon="5.84091">
        <ele>939.8</ele>
        <time>2012-02-14T15:36:11Z</time>
      </trkpt>
      <trkpt lat="45.33305" lon="5.84103">
        <ele>939.9</ele>
        <time>2012-02-14T15:36:16Z</time>
      </trkpt>
      <trkpt lat="45.33305" lon="5.84103">
        <ele>939.9</ele>
        <time>2012-02-14T15:36:16Z</time>
      </trkpt>
      <trkpt lat="45.33309" lon="5.84112">
        <ele>939.8</ele>
        <time>2012-02-14T15:36:20Z</time>
      </trkpt>
      <trkpt lat="45.33312" lon="5.84124">
        <ele>940</ele>
        <time>2012-02-14T15:36:28Z</time>
      </trkpt>
      <trkpt lat="45.33312" lon="5.84136">
        <ele>941</ele>
        <time>2012-02-14T15:36:38Z</time>
      </trkpt>
      <trkpt lat="45.33311" lon="5.84148">
        <ele>941.7</ele>
        <time>2012-02-14T15:36:47Z</time>
      </trkpt>
      <trkpt lat="45.33308" lon="5.8416">
        <ele>942</ele>
        <time>2012-02-14T15:36:56Z</time>
      </trkpt>
      <trkpt lat="45.33308" lon="5.84161">
        <ele>942.1</ele>
        <time>2012-02-14T15:36:57Z</time>
      </trkpt>
      <trkpt lat="45.333" lon="5.8418">
        <ele>943.7</ele>
        <time>2012-02-14T15:38:00Z</time>
      </trkpt>
      <trkpt lat="45.33299" lon="5.84181">
        <ele>943.8</ele>
        <time>2012-02-14T15:38:01Z</time>
      </trkpt>
      <trkpt lat="45.33292" lon="5.84201">
        <ele>946.1</ele>
        <time>2012-02-14T15:38:18Z</time>
      </trkpt>
      <trkpt lat="45.33289" lon="5.84211">
        <ele>946.1</ele>
        <time>2012-02-14T15:38:27Z</time>
      </trkpt>
      <trkpt lat="45.33287" lon="5.84223">
        <ele>946.7</ele>
        <time>2012-02-14T15:38:37Z</time>
      </trkpt>
      <trkpt lat="45.33287" lon="5.84234">
        <ele>947.3</ele>
        <time>2012-02-14T15:38:46Z</time>
      </trkpt>
      <trkpt lat="45.33285" lon="5.84245">
        <ele>946.8</ele>
        <time>2012-02-14T15:38:54Z</time>
      </trkpt>
      <trkpt lat="45.33281" lon="5.84256">
        <ele>946.7</ele>
        <time>2012-02-14T15:39:01Z</time>
      </trkpt>
      <trkpt lat="45.33279" lon="5.84258">
        <ele>946.6</ele>
        <time>2012-02-14T15:39:02Z</time>
      </trkpt>
      <trkpt lat="45.3327" lon="5.84275">
        <ele>947.5</ele>
        <time>2012-02-14T15:39:14Z</time>
      </trkpt>
      <trkpt lat="45.33265" lon="5.84285">
        <ele>947.2</ele>
        <time>2012-02-14T15:39:20Z</time>
      </trkpt>
      <trkpt lat="45.3326" lon="5.84294">
        <ele>948</ele>
        <time>2012-02-14T15:39:25Z</time>
      </trkpt>
      <trkpt lat="45.33255" lon="5.84304">
        <ele>947.5</ele>
        <time>2012-02-14T15:39:32Z</time>
      </trkpt>
      <trkpt lat="45.33251" lon="5.84314">
        <ele>947.7</ele>
        <time>2012-02-14T15:39:39Z</time>
      </trkpt>
      <trkpt lat="45.33248" lon="5.84326">
        <ele>949.1</ele>
        <time>2012-02-14T15:39:47Z</time>
      </trkpt>
      <trkpt lat="45.33244" lon="5.84336">
        <ele>949</ele>
        <time>2012-02-14T15:39:53Z</time>
      </trkpt>
      <trkpt lat="45.33241" lon="5.84347">
        <ele>949.8</ele>
        <time>2012-02-14T15:40:00Z</time>
      </trkpt>
      <trkpt lat="45.33237" lon="5.84358">
        <ele>949.7</ele>
        <time>2012-02-14T15:40:07Z</time>
      </trkpt>
      <trkpt lat="45.33236" lon="5.8436">
        <ele>949.6</ele>
        <time>2012-02-14T15:40:08Z</time>
      </trkpt>
      <trkpt lat="45.3323" lon="5.84379">
        <ele>951.3</ele>
        <time>2012-02-14T15:40:22Z</time>
      </trkpt>
      <trkpt lat="45.33223" lon="5.84386">
        <ele>950.7</ele>
        <time>2012-02-14T15:40:28Z</time>
      </trkpt>
      <trkpt lat="45.33216" lon="5.84393">
        <ele>951.7</ele>
        <time>2012-02-14T15:40:33Z</time>
      </trkpt>
      <trkpt lat="45.3321" lon="5.844">
        <ele>951.3</ele>
        <time>2012-02-14T15:40:38Z</time>
      </trkpt>
      <trkpt lat="45.33203" lon="5.84407">
        <ele>951.7</ele>
        <time>2012-02-14T15:40:44Z</time>
      </trkpt>
      <trkpt lat="45.33195" lon="5.84413">
        <ele>952</ele>
        <time>2012-02-14T15:40:53Z</time>
      </trkpt>
      <trkpt lat="45.33189" lon="5.8442">
        <ele>952.4</ele>
        <time>2012-02-14T15:41:02Z</time>
      </trkpt>
      <trkpt lat="45.33183" lon="5.84427">
        <ele>952.1</ele>
        <time>2012-02-14T15:41:10Z</time>
      </trkpt>
      <trkpt lat="45.33182" lon="5.84428">
        <ele>952.1</ele>
        <time>2012-02-14T15:41:11Z</time>
      </trkpt>
      <trkpt lat="45.3317" lon="5.84443">
        <ele>952.5</ele>
        <time>2012-02-14T15:41:22Z</time>
      </trkpt>
      <trkpt lat="45.33165" lon="5.84452">
        <ele>952.9</ele>
        <time>2012-02-14T15:41:27Z</time>
      </trkpt>
      <trkpt lat="45.3316" lon="5.84462">
        <ele>953.7</ele>
        <time>2012-02-14T15:41:33Z</time>
      </trkpt>
      <trkpt lat="45.33156" lon="5.84473">
        <ele>953.5</ele>
        <time>2012-02-14T15:41:40Z</time>
      </trkpt>
      <trkpt lat="45.33152" lon="5.84484">
        <ele>954</ele>
        <time>2012-02-14T15:41:46Z</time>
      </trkpt>
      <trkpt lat="45.33149" lon="5.84495">
        <ele>954.3</ele>
        <time>2012-02-14T15:41:52Z</time>
      </trkpt>
      <trkpt lat="45.33148" lon="5.84507">
        <ele>954.4</ele>
        <time>2012-02-14T15:41:59Z</time>
      </trkpt>
      <trkpt lat="45.33147" lon="5.84519">
        <ele>955</ele>
        <time>2012-02-14T15:42:05Z</time>
      </trkpt>
      <trkpt lat="45.33145" lon="5.84531">
        <ele>955.9</ele>
        <time>2012-02-14T15:42:12Z</time>
      </trkpt>
      <trkpt lat="45.33145" lon="5.84532">
        <ele>956</ele>
        <time>2012-02-14T15:42:13Z</time>
      </trkpt>
      <trkpt lat="45.33144" lon="5.84548">
        <ele>956.2</ele>
        <time>2012-02-14T15:42:52Z</time>
      </trkpt>
    </trkseg>
  </trk>
</gpx>